TSC045 LJLJ-CYUL
Flight info
| Callsign | TSC045 |
|---|---|
| Flight time | 8h 8m |
| Altitude | 38000 |
| Route | GIMIX1Z GIMIX DCT SIMBA DCT GASKA DCT MASEK DCT OTMEC DCT RAVLO Y70 OTBED DCT ABLUC DCT OZRAT DCT WETFI DCT REVNU DCT VENER/M075F380 DCT 5520N DCT H5530 DCT H5540 DCT 5450N DCT NEEKO/N0438F380 N624C ANATI Q812 OBTEK DCT TIBOS ROCKT3 |
| Aircraft | A21N/M-SDE2E3FGHIJ1J4J7M3P2RWXY/LB1D1 |
Departure
| Time | 2026-04-23 08:43 |
|---|---|
| Airport | Ljubljana Jože Pučnik Airport (LJLJ) |
Arrival
| Time | 2026-04-23 16:52 |
|---|---|
| Airport | Montreal / Pierre Elliott Trudeau International Airport (CYUL) |
| Time | Latitude | Longitude | Altitude | Speed | Heading |
|---|---|---|---|---|---|
| 2026-04-23 07:46 | 46.22993 | 14.45235 | 1269 ft | 0 kts | 71° |
| 2026-04-23 08:35 | 46.22994 | 14.45236 | 1264 ft | 1 kts | 71° |
| 2026-04-23 08:35 | 46.23001 | 14.45271 | 1267 ft | 6 kts | 78° |
| 2026-04-23 08:35 | 46.22989 | 14.45335 | 1266 ft | 8 kts | 119° |
| 2026-04-23 08:36 | 46.22950 | 14.45404 | 1264 ft | 9 kts | 150° |
| 2026-04-23 08:36 | 46.22891 | 14.45363 | 1266 ft | 10 kts | 221° |
| 2026-04-23 08:36 | 46.22838 | 14.45329 | 1268 ft | 9 kts | 168° |
| 2026-04-23 08:36 | 46.22792 | 14.45393 | 1268 ft | 10 kts | 125° |
| 2026-04-23 08:37 | 46.22757 | 14.45462 | 1261 ft | 8 kts | 127° |
| 2026-04-23 08:37 | 46.22720 | 14.45533 | 1259 ft | 10 kts | 127° |
| 2026-04-23 08:37 | 46.22673 | 14.45623 | 1256 ft | 13 kts | 126° |
| 2026-04-23 08:37 | 46.22619 | 14.45733 | 1253 ft | 14 kts | 127° |
| 2026-04-23 08:38 | 46.22558 | 14.45851 | 1257 ft | 15 kts | 126° |
| 2026-04-23 08:38 | 46.22497 | 14.45971 | 1247 ft | 14 kts | 126° |
| 2026-04-23 08:38 | 46.22437 | 14.46088 | 1250 ft | 15 kts | 126° |
| 2026-04-23 08:38 | 46.22372 | 14.46217 | 1248 ft | 17 kts | 126° |
| 2026-04-23 08:39 | 46.22300 | 14.46355 | 1238 ft | 18 kts | 127° |
| 2026-04-23 08:39 | 46.22224 | 14.46503 | 1230 ft | 19 kts | 126° |
| 2026-04-23 08:39 | 46.22150 | 14.46648 | 1227 ft | 16 kts | 126° |
| 2026-04-23 08:39 | 46.22080 | 14.46786 | 1222 ft | 18 kts | 127° |
| 2026-04-23 08:40 | 46.22003 | 14.46936 | 1221 ft | 19 kts | 126° |
| 2026-04-23 08:40 | 46.21923 | 14.47093 | 1218 ft | 12 kts | 127° |
| 2026-04-23 08:40 | 46.21873 | 14.47191 | 1217 ft | 13 kts | 126° |
| 2026-04-23 08:40 | 46.21817 | 14.47299 | 1214 ft | 14 kts | 126° |
| 2026-04-23 08:41 | 46.21755 | 14.47420 | 1213 ft | 16 kts | 126° |
| 2026-04-23 08:41 | 46.21704 | 14.47521 | 1207 ft | 12 kts | 127° |
| 2026-04-23 08:41 | 46.21669 | 14.47589 | 1203 ft | 6 kts | 129° |
| 2026-04-23 08:41 | 46.21624 | 14.47597 | 1202 ft | 8 kts | 204° |
| 2026-04-23 08:42 | 46.21572 | 14.47544 | 1202 ft | 10 kts | 218° |
| 2026-04-23 08:42 | 46.21521 | 14.47483 | 1202 ft | 6 kts | 231° |
| 2026-04-23 08:42 | 46.21525 | 14.47409 | 1205 ft | 9 kts | 304° |
| 2026-04-23 08:42 | 46.21581 | 14.47300 | 1209 ft | 29 kts | 307° |
| 2026-04-23 08:43 | 46.21866 | 14.46749 | 1228 ft | 107 kts | 305° |
| 2026-04-23 08:43 | 46.22428 | 14.45647 | 1259 ft | 160 kts | 306° |
| 2026-04-23 08:43 | 46.23132 | 14.44235 | 1681 ft | 176 kts | 306° |
| 2026-04-23 08:43 | 46.23829 | 14.42764 | 2397 ft | 180 kts | 304° |
| 2026-04-23 08:44 | 46.24267 | 14.41052 | 3048 ft | 190 kts | 273° |
| 2026-04-23 08:44 | 46.24073 | 14.39069 | 3561 ft | 212 kts | 263° |
| 2026-04-23 08:44 | 46.23996 | 14.36874 | 3987 ft | 230 kts | 275° |
| 2026-04-23 08:44 | 46.24182 | 14.34588 | 5064 ft | 226 kts | 280° |
| 2026-04-23 08:45 | 46.24413 | 14.32359 | 6185 ft | 224 kts | 281° |
| 2026-04-23 08:45 | 46.24590 | 14.30092 | 7139 ft | 230 kts | 281° |
| 2026-04-23 08:45 | 46.24750 | 14.27769 | 8012 ft | 236 kts | 281° |
| 2026-04-23 08:45 | 46.24902 | 14.25383 | 8895 ft | 241 kts | 281° |
| 2026-04-23 08:46 | 46.25052 | 14.22945 | 9775 ft | 246 kts | 281° |
| 2026-04-23 08:46 | 46.25205 | 14.20452 | 10594 ft | 252 kts | 281° |
| 2026-04-23 08:46 | 46.25359 | 14.17905 | 11354 ft | 256 kts | 281° |
| 2026-04-23 08:46 | 46.25513 | 14.15317 | 12060 ft | 261 kts | 281° |
| 2026-04-23 08:47 | 46.25673 | 14.12686 | 12863 ft | 265 kts | 281° |
| 2026-04-23 08:47 | 46.25880 | 14.10000 | 13513 ft | 274 kts | 290° |
| 2026-04-23 08:47 | 46.26745 | 14.07553 | 13870 ft | 280 kts | 317° |
| 2026-04-23 08:47 | 46.28170 | 14.05503 | 14193 ft | 299 kts | 323° |
| 2026-04-23 08:48 | 46.29749 | 14.03401 | 14580 ft | 318 kts | 323° |
| 2026-04-23 08:48 | 46.31382 | 14.01188 | 15068 ft | 332 kts | 322° |
| 2026-04-23 08:48 | 46.33065 | 13.98839 | 15786 ft | 338 kts | 321° |
| 2026-04-23 08:48 | 46.34761 | 13.96448 | 16588 ft | 343 kts | 321° |
| 2026-04-23 08:49 | 46.36469 | 13.94015 | 17397 ft | 346 kts | 321° |
| 2026-04-23 08:49 | 46.38195 | 13.91550 | 18193 ft | 351 kts | 321° |
| 2026-04-23 08:49 | 46.39943 | 13.89055 | 18902 ft | 356 kts | 321° |
| 2026-04-23 08:49 | 46.41720 | 13.86513 | 19559 ft | 361 kts | 321° |
| 2026-04-23 08:50 | 46.43515 | 13.83943 | 20174 ft | 366 kts | 321° |
| 2026-04-23 08:50 | 46.45341 | 13.81331 | 20807 ft | 371 kts | 321° |
| 2026-04-23 08:50 | 46.47195 | 13.78688 | 21368 ft | 376 kts | 321° |
| 2026-04-23 08:50 | 46.49070 | 13.76012 | 21985 ft | 381 kts | 321° |
| 2026-04-23 08:51 | 46.50995 | 13.73338 | 22569 ft | 384 kts | 324° |
| 2026-04-23 08:51 | 46.53201 | 13.71198 | 23113 ft | 380 kts | 340° |
| 2026-04-23 08:51 | 46.55681 | 13.69925 | 23688 ft | 379 kts | 349° |
| 2026-04-23 08:51 | 46.58237 | 13.68942 | 24203 ft | 382 kts | 351° |
| 2026-04-23 08:52 | 46.60815 | 13.67969 | 24720 ft | 384 kts | 351° |
| 2026-04-23 08:52 | 46.63413 | 13.66967 | 25272 ft | 387 kts | 351° |
| 2026-04-23 08:52 | 46.66022 | 13.65942 | 25802 ft | 390 kts | 350° |
| 2026-04-23 08:52 | 46.68651 | 13.64903 | 26316 ft | 393 kts | 350° |
| 2026-04-23 08:53 | 46.71293 | 13.63860 | 26825 ft | 395 kts | 350° |
| 2026-04-23 08:53 | 46.73957 | 13.62802 | 27312 ft | 398 kts | 350° |
| 2026-04-23 08:53 | 46.76641 | 13.61729 | 27781 ft | 401 kts | 350° |
| 2026-04-23 08:53 | 46.79343 | 13.60650 | 28254 ft | 403 kts | 350° |
| 2026-04-23 08:54 | 46.82056 | 13.59563 | 28723 ft | 406 kts | 350° |
| 2026-04-23 08:54 | 46.84786 | 13.58466 | 29202 ft | 408 kts | 350° |
| 2026-04-23 08:54 | 46.87530 | 13.57363 | 29633 ft | 411 kts | 350° |
| 2026-04-23 08:54 | 46.90298 | 13.56249 | 30043 ft | 414 kts | 351° |
| 2026-04-23 08:55 | 46.93044 | 13.55152 | 30420 ft | 416 kts | 350° |
| 2026-04-23 08:55 | 46.95848 | 13.54035 | 30760 ft | 419 kts | 350° |
| 2026-04-23 08:55 | 46.98668 | 13.52907 | 31054 ft | 421 kts | 350° |
| 2026-04-23 08:55 | 47.01496 | 13.51767 | 31378 ft | 422 kts | 350° |
| 2026-04-23 08:56 | 47.04327 | 13.50618 | 31743 ft | 424 kts | 350° |
| 2026-04-23 08:56 | 47.07177 | 13.49464 | 32039 ft | 426 kts | 351° |
| 2026-04-23 08:56 | 47.10037 | 13.48313 | 32469 ft | 426 kts | 350° |
| 2026-04-23 08:56 | 47.12894 | 13.47164 | 32870 ft | 425 kts | 350° |
| 2026-04-23 08:57 | 47.15740 | 13.46009 | 33275 ft | 425 kts | 350° |
| 2026-04-23 08:57 | 47.17628 | 13.45239 | 33520 ft | 425 kts | 350° |
| 2026-04-23 08:57 | 47.20474 | 13.44076 | 33874 ft | 425 kts | 350° |
| 2026-04-23 08:57 | 47.23324 | 13.42913 | 34225 ft | 424 kts | 350° |
| 2026-04-23 08:58 | 47.26162 | 13.41751 | 34589 ft | 423 kts | 350° |
| 2026-04-23 08:58 | 47.28995 | 13.40596 | 34913 ft | 422 kts | 350° |
| 2026-04-23 08:58 | 47.31824 | 13.39451 | 35216 ft | 421 kts | 350° |
| 2026-04-23 08:58 | 47.34652 | 13.38309 | 35499 ft | 421 kts | 350° |
| 2026-04-23 08:59 | 47.37477 | 13.37160 | 35750 ft | 422 kts | 350° |
| 2026-04-23 08:59 | 47.40311 | 13.36003 | 35985 ft | 422 kts | 350° |
| 2026-04-23 08:59 | 47.43141 | 13.34834 | 36239 ft | 422 kts | 349° |
| 2026-04-23 08:59 | 47.45973 | 13.33673 | 36380 ft | 422 kts | 350° |
| 2026-04-23 09:00 | 47.51627 | 13.31338 | 36369 ft | 422 kts | 349° |
| 2026-04-23 09:00 | 47.57277 | 13.28981 | 36335 ft | 421 kts | 350° |
| 2026-04-23 09:01 | 47.62927 | 13.26662 | 36352 ft | 422 kts | 350° |
| 2026-04-23 09:01 | 47.68583 | 13.24348 | 36350 ft | 421 kts | 350° |
| 2026-04-23 09:02 | 47.74216 | 13.22022 | 36359 ft | 420 kts | 350° |
| 2026-04-23 09:02 | 47.79852 | 13.19683 | 36342 ft | 421 kts | 350° |
| 2026-04-23 09:03 | 47.85490 | 13.17336 | 36347 ft | 421 kts | 350° |
| 2026-04-23 09:03 | 47.91136 | 13.14981 | 36360 ft | 421 kts | 350° |
| 2026-04-23 09:04 | 47.96787 | 13.12620 | 36364 ft | 422 kts | 350° |
| 2026-04-23 09:04 | 48.02439 | 13.10248 | 36364 ft | 422 kts | 350° |
| 2026-04-23 09:05 | 48.08087 | 13.07871 | 36366 ft | 422 kts | 350° |
| 2026-04-23 09:05 | 48.13695 | 13.05510 | 36370 ft | 422 kts | 350° |
| 2026-04-23 09:06 | 48.19348 | 13.03128 | 36367 ft | 422 kts | 350° |
| 2026-04-23 09:06 | 48.24747 | 12.99493 | 36374 ft | 436 kts | 330° |
| 2026-04-23 09:07 | 48.29502 | 12.93741 | 36357 ft | 441 kts | 326° |
| 2026-04-23 09:07 | 48.34237 | 12.87875 | 36371 ft | 441 kts | 326° |
| 2026-04-23 09:08 | 48.38990 | 12.82042 | 36370 ft | 441 kts | 326° |
| 2026-04-23 09:08 | 48.43745 | 12.76194 | 36374 ft | 441 kts | 326° |
| 2026-04-23 09:09 | 48.48501 | 12.70337 | 36372 ft | 441 kts | 326° |
| 2026-04-23 09:09 | 48.53250 | 12.64466 | 36371 ft | 442 kts | 326° |
| 2026-04-23 09:10 | 48.60374 | 12.55631 | 36373 ft | 442 kts | 326° |
| 2026-04-23 09:11 | 48.65117 | 12.49739 | 36367 ft | 441 kts | 326° |
| 2026-04-23 09:11 | 48.69856 | 12.43829 | 36372 ft | 441 kts | 326° |
| 2026-04-23 09:12 | 48.74591 | 12.37904 | 36371 ft | 441 kts | 326° |
| 2026-04-23 09:12 | 48.79327 | 12.31970 | 36369 ft | 441 kts | 326° |
| 2026-04-23 09:13 | 48.84056 | 12.26004 | 36362 ft | 443 kts | 326° |
| 2026-04-23 09:13 | 48.88772 | 12.20057 | 36363 ft | 444 kts | 326° |
| 2026-04-23 09:14 | 48.93517 | 12.14062 | 36368 ft | 444 kts | 326° |
| 2026-04-23 09:14 | 48.98262 | 12.08054 | 36369 ft | 444 kts | 326° |
| 2026-04-23 09:15 | 49.03007 | 12.02042 | 36369 ft | 444 kts | 326° |
| 2026-04-23 09:15 | 49.07760 | 11.96038 | 36357 ft | 444 kts | 326° |
| 2026-04-23 09:16 | 49.12513 | 11.89998 | 36372 ft | 445 kts | 326° |
| 2026-04-23 09:16 | 49.17257 | 11.83921 | 36368 ft | 445 kts | 325° |
| 2026-04-23 09:17 | 49.22006 | 11.77836 | 36370 ft | 445 kts | 325° |
| 2026-04-23 09:17 | 49.26748 | 11.71746 | 36375 ft | 445 kts | 325° |
| 2026-04-23 09:18 | 49.31487 | 11.65640 | 36375 ft | 445 kts | 325° |
| 2026-04-23 09:18 | 49.36225 | 11.59513 | 36376 ft | 447 kts | 325° |
| 2026-04-23 09:19 | 49.40980 | 11.53358 | 36364 ft | 447 kts | 325° |
| 2026-04-23 09:19 | 49.45727 | 11.47192 | 36371 ft | 447 kts | 325° |
| 2026-04-23 09:20 | 49.50472 | 11.41016 | 36371 ft | 447 kts | 325° |
| 2026-04-23 09:20 | 49.55205 | 11.34832 | 36374 ft | 446 kts | 325° |
| 2026-04-23 09:21 | 49.59942 | 11.28638 | 36356 ft | 447 kts | 324° |
| 2026-04-23 09:21 | 49.64686 | 11.22411 | 36394 ft | 449 kts | 324° |
| 2026-04-23 09:22 | 49.69426 | 11.16165 | 36396 ft | 448 kts | 324° |
| 2026-04-23 09:22 | 49.74162 | 11.09918 | 36386 ft | 448 kts | 324° |
| 2026-04-23 09:23 | 49.78898 | 11.03638 | 36384 ft | 448 kts | 324° |
| 2026-04-23 09:23 | 49.83600 | 10.97414 | 36377 ft | 448 kts | 324° |
| 2026-04-23 09:24 | 49.88327 | 10.91100 | 36373 ft | 449 kts | 324° |
| 2026-04-23 09:24 | 49.93069 | 10.84765 | 36376 ft | 450 kts | 324° |
| 2026-04-23 09:25 | 49.97811 | 10.78415 | 36389 ft | 450 kts | 324° |
| 2026-04-23 09:25 | 50.02566 | 10.72074 | 36390 ft | 450 kts | 324° |
| 2026-04-23 09:26 | 50.07303 | 10.65713 | 36389 ft | 450 kts | 324° |
| 2026-04-23 09:26 | 50.12035 | 10.59334 | 36389 ft | 450 kts | 324° |
| 2026-04-23 09:27 | 50.16769 | 10.52933 | 36385 ft | 452 kts | 323° |
| 2026-04-23 09:27 | 50.21519 | 10.46487 | 36392 ft | 452 kts | 323° |
| 2026-04-23 09:28 | 50.26266 | 10.40037 | 36391 ft | 452 kts | 323° |
| 2026-04-23 09:28 | 50.31011 | 10.33577 | 36392 ft | 452 kts | 323° |
| 2026-04-23 09:29 | 50.35656 | 10.27007 | 36385 ft | 456 kts | 317° |
| 2026-04-23 09:29 | 50.39871 | 10.19543 | 36389 ft | 458 kts | 315° |
| 2026-04-23 09:30 | 50.44072 | 10.12006 | 36389 ft | 459 kts | 315° |
| 2026-04-23 09:30 | 50.48268 | 10.04471 | 36405 ft | 458 kts | 315° |
| 2026-04-23 09:31 | 50.52456 | 9.96938 | 36403 ft | 458 kts | 315° |
| 2026-04-23 09:31 | 50.56643 | 9.89398 | 36407 ft | 458 kts | 315° |
| 2026-04-23 09:32 | 50.60825 | 9.81838 | 36403 ft | 458 kts | 315° |
| 2026-04-23 09:32 | 50.65007 | 9.74241 | 36406 ft | 460 kts | 314° |
| 2026-04-23 09:33 | 50.69200 | 9.66608 | 36405 ft | 461 kts | 314° |
| 2026-04-23 09:33 | 50.73292 | 9.58824 | 36412 ft | 463 kts | 308° |
| 2026-04-23 09:34 | 50.76669 | 9.50127 | 36413 ft | 465 kts | 303° |
| 2026-04-23 09:34 | 50.79955 | 9.41316 | 36420 ft | 465 kts | 303° |
| 2026-04-23 09:35 | 50.83275 | 9.32531 | 36415 ft | 465 kts | 303° |
| 2026-04-23 09:35 | 50.86596 | 9.23734 | 36423 ft | 466 kts | 303° |
| 2026-04-23 09:36 | 50.89889 | 9.14991 | 36412 ft | 466 kts | 303° |
| 2026-04-23 09:36 | 50.93204 | 9.06166 | 36421 ft | 466 kts | 303° |
| 2026-04-23 09:37 | 50.96499 | 8.97328 | 36414 ft | 466 kts | 303° |
| 2026-04-23 09:37 | 50.99792 | 8.88476 | 36411 ft | 466 kts | 303° |
| 2026-04-23 09:38 | 51.03077 | 8.79617 | 36419 ft | 465 kts | 303° |
| 2026-04-23 09:38 | 51.06351 | 8.70748 | 36413 ft | 465 kts | 303° |
| 2026-04-23 09:39 | 51.09629 | 8.61872 | 36419 ft | 465 kts | 303° |
| 2026-04-23 09:39 | 51.12896 | 8.52983 | 36417 ft | 466 kts | 302° |
| 2026-04-23 09:40 | 51.16156 | 8.44066 | 36420 ft | 466 kts | 302° |
| 2026-04-23 09:40 | 51.19417 | 8.35134 | 36425 ft | 466 kts | 302° |
| 2026-04-23 09:41 | 51.22665 | 8.26188 | 36425 ft | 466 kts | 302° |
| 2026-04-23 09:41 | 51.25906 | 8.17233 | 36437 ft | 466 kts | 302° |
| 2026-04-23 09:42 | 51.29144 | 8.08255 | 36432 ft | 467 kts | 301° |
| 2026-04-23 09:42 | 51.32375 | 7.99259 | 36440 ft | 467 kts | 301° |
| 2026-04-23 09:43 | 51.35606 | 7.90253 | 36454 ft | 467 kts | 301° |
| 2026-04-23 09:43 | 51.38824 | 7.81233 | 36461 ft | 467 kts | 301° |
| 2026-04-23 09:44 | 51.42015 | 7.72254 | 36464 ft | 467 kts | 301° |
| 2026-04-23 09:44 | 51.45221 | 7.63209 | 36465 ft | 467 kts | 300° |
| 2026-04-23 09:45 | 51.48426 | 7.54130 | 36466 ft | 468 kts | 300° |
| 2026-04-23 09:45 | 51.51627 | 7.45038 | 36461 ft | 468 kts | 300° |
| 2026-04-23 09:46 | 51.54822 | 7.35929 | 36465 ft | 468 kts | 300° |
| 2026-04-23 09:46 | 51.58004 | 7.26810 | 36464 ft | 468 kts | 300° |
| 2026-04-23 09:47 | 51.61185 | 7.17673 | 36461 ft | 468 kts | 300° |
| 2026-04-23 09:47 | 51.63824 | 7.10066 | 36462 ft | 468 kts | 300° |
| 2026-04-23 09:48 | 51.66992 | 7.00905 | 36464 ft | 468 kts | 300° |
| 2026-04-23 09:48 | 51.70152 | 6.91731 | 36470 ft | 468 kts | 300° |
| 2026-04-23 09:49 | 51.73306 | 6.82541 | 36470 ft | 468 kts | 299° |
| 2026-04-23 09:49 | 51.76439 | 6.73327 | 36471 ft | 469 kts | 299° |
| 2026-04-23 09:50 | 51.79583 | 6.64108 | 36472 ft | 468 kts | 299° |
| 2026-04-23 09:50 | 51.82721 | 6.54887 | 36478 ft | 468 kts | 299° |
| 2026-04-23 09:51 | 51.85848 | 6.45644 | 36478 ft | 468 kts | 298° |
| 2026-04-23 09:51 | 51.88957 | 6.36386 | 36477 ft | 467 kts | 298° |
| 2026-04-23 09:52 | 51.92060 | 6.27126 | 36483 ft | 468 kts | 298° |
| 2026-04-23 09:52 | 51.95159 | 6.17831 | 36482 ft | 469 kts | 298° |
| 2026-04-23 09:53 | 51.98251 | 6.08524 | 36480 ft | 469 kts | 298° |
| 2026-04-23 09:53 | 52.01340 | 5.99206 | 36482 ft | 469 kts | 298° |
| 2026-04-23 09:54 | 52.04398 | 5.89939 | 36493 ft | 469 kts | 298° |
| 2026-04-23 09:54 | 52.07488 | 5.80592 | 36497 ft | 470 kts | 298° |
| 2026-04-23 09:55 | 52.10617 | 5.71265 | 36496 ft | 470 kts | 298° |
| 2026-04-23 09:55 | 52.13732 | 5.61912 | 36507 ft | 470 kts | 298° |
| 2026-04-23 09:56 | 52.16834 | 5.52557 | 36506 ft | 469 kts | 297° |
| 2026-04-23 09:56 | 52.19922 | 5.43205 | 36514 ft | 469 kts | 297° |
| 2026-04-23 09:57 | 52.23004 | 5.33819 | 36520 ft | 470 kts | 297° |
| 2026-04-23 09:57 | 52.26076 | 5.24410 | 36521 ft | 470 kts | 297° |
| 2026-04-23 09:58 | 52.29151 | 5.14988 | 36520 ft | 470 kts | 297° |
| 2026-04-23 09:58 | 52.32224 | 5.05554 | 36522 ft | 470 kts | 297° |
| 2026-04-23 09:59 | 52.35286 | 4.96108 | 36525 ft | 470 kts | 297° |
| 2026-04-23 09:59 | 52.38343 | 4.86641 | 36527 ft | 471 kts | 296° |
| 2026-04-23 10:00 | 52.41392 | 4.77142 | 36523 ft | 471 kts | 296° |
| 2026-04-23 10:00 | 52.44430 | 4.67640 | 36514 ft | 470 kts | 296° |
| 2026-04-23 10:01 | 52.47451 | 4.58145 | 36519 ft | 470 kts | 296° |
| 2026-04-23 10:01 | 52.50449 | 4.48707 | 36518 ft | 469 kts | 296° |
| 2026-04-23 10:02 | 52.53454 | 4.39201 | 36519 ft | 469 kts | 296° |
| 2026-04-23 10:02 | 52.56439 | 4.29669 | 36525 ft | 469 kts | 296° |
| 2026-04-23 10:03 | 52.59419 | 4.20118 | 36525 ft | 469 kts | 296° |
| 2026-04-23 10:03 | 52.62407 | 4.10573 | 36532 ft | 469 kts | 296° |
| 2026-04-23 10:04 | 52.65386 | 4.01023 | 36527 ft | 469 kts | 296° |
| 2026-04-23 10:04 | 52.68353 | 3.91435 | 36531 ft | 470 kts | 295° |
| 2026-04-23 10:05 | 52.71312 | 3.81829 | 36524 ft | 469 kts | 295° |
| 2026-04-23 10:05 | 52.74264 | 3.72232 | 36527 ft | 469 kts | 295° |
| 2026-04-23 10:06 | 52.77207 | 3.62628 | 36529 ft | 469 kts | 295° |
| 2026-04-23 10:06 | 52.80143 | 3.53008 | 36534 ft | 469 kts | 295° |
| 2026-04-23 10:07 | 52.83063 | 3.43375 | 36539 ft | 468 kts | 294° |
| 2026-04-23 10:07 | 52.85976 | 3.33739 | 36532 ft | 468 kts | 294° |
| 2026-04-23 10:08 | 52.88896 | 3.24104 | 36532 ft | 468 kts | 295° |
| 2026-04-23 10:08 | 52.91648 | 3.14426 | 36531 ft | 466 kts | 286° |
| 2026-04-23 10:09 | 52.93839 | 2.98849 | 36554 ft | 460 kts | 278° |
| 2026-04-23 10:09 | 52.95179 | 2.88475 | 36550 ft | 460 kts | 279° |
| 2026-04-23 10:10 | 52.96522 | 2.78092 | 36553 ft | 460 kts | 279° |
| 2026-04-23 10:10 | 52.97870 | 2.67706 | 36535 ft | 460 kts | 279° |
| 2026-04-23 10:11 | 52.99202 | 2.57343 | 36549 ft | 459 kts | 278° |
| 2026-04-23 10:11 | 53.00523 | 2.46982 | 36556 ft | 457 kts | 278° |
| 2026-04-23 10:12 | 53.01835 | 2.36653 | 36555 ft | 457 kts | 278° |
| 2026-04-23 10:12 | 53.03127 | 2.26312 | 36556 ft | 457 kts | 278° |
| 2026-04-23 10:13 | 53.04407 | 2.15964 | 36561 ft | 457 kts | 278° |
| 2026-04-23 10:13 | 53.05686 | 2.05611 | 36561 ft | 457 kts | 278° |
| 2026-04-23 10:14 | 53.06957 | 1.95248 | 36568 ft | 458 kts | 278° |
| 2026-04-23 10:14 | 53.08226 | 1.84861 | 36565 ft | 458 kts | 278° |
| 2026-04-23 10:15 | 53.09482 | 1.74468 | 36568 ft | 458 kts | 278° |
| 2026-04-23 10:15 | 53.10734 | 1.64067 | 36567 ft | 458 kts | 278° |
| 2026-04-23 10:16 | 53.11972 | 1.53660 | 36569 ft | 458 kts | 278° |
| 2026-04-23 10:16 | 53.13197 | 1.43271 | 36571 ft | 457 kts | 278° |
| 2026-04-23 10:17 | 53.14406 | 1.32948 | 36570 ft | 457 kts | 278° |
| 2026-04-23 10:17 | 53.15615 | 1.22559 | 36573 ft | 457 kts | 278° |
| 2026-04-23 10:18 | 53.16811 | 1.12159 | 36573 ft | 457 kts | 278° |
| 2026-04-23 10:18 | 53.18000 | 1.01749 | 36581 ft | 457 kts | 278° |
| 2026-04-23 10:19 | 53.19172 | 0.91392 | 36572 ft | 453 kts | 278° |
| 2026-04-23 10:19 | 53.20336 | 0.81054 | 36576 ft | 454 kts | 278° |
| 2026-04-23 10:20 | 53.21489 | 0.70715 | 36577 ft | 454 kts | 278° |
| 2026-04-23 10:20 | 53.22632 | 0.60367 | 36577 ft | 453 kts | 278° |
| 2026-04-23 10:21 | 53.23769 | 0.50014 | 36580 ft | 453 kts | 279° |
| 2026-04-23 10:21 | 53.24887 | 0.39738 | 36576 ft | 449 kts | 279° |
| 2026-04-23 10:22 | 53.25997 | 0.29478 | 36578 ft | 449 kts | 278° |
| 2026-04-23 10:22 | 53.27100 | 0.19200 | 36581 ft | 450 kts | 278° |
| 2026-04-23 10:23 | 53.28187 | 0.08902 | 36581 ft | 450 kts | 278° |
| 2026-04-23 10:23 | 53.29391 | -0.01360 | 36605 ft | 450 kts | 282° |
| 2026-04-23 10:24 | 53.30719 | -0.11437 | 36592 ft | 442 kts | 282° |
| 2026-04-23 10:24 | 53.32031 | -0.21477 | 36592 ft | 442 kts | 282° |
| 2026-04-23 10:25 | 53.33337 | -0.31527 | 36592 ft | 442 kts | 282° |
| 2026-04-23 10:25 | 53.34641 | -0.41598 | 36581 ft | 443 kts | 282° |
| 2026-04-23 10:26 | 53.35921 | -0.51597 | 36582 ft | 442 kts | 282° |
| 2026-04-23 10:26 | 53.37208 | -0.61665 | 36588 ft | 443 kts | 282° |
| 2026-04-23 10:27 | 53.38496 | -0.71742 | 36577 ft | 442 kts | 282° |
| 2026-04-23 10:27 | 53.39762 | -0.81817 | 36568 ft | 442 kts | 282° |
| 2026-04-23 10:28 | 53.41014 | -0.91896 | 36583 ft | 442 kts | 282° |
| 2026-04-23 10:28 | 53.42263 | -1.01987 | 36587 ft | 442 kts | 282° |
| 2026-04-23 10:29 | 53.43491 | -1.11984 | 36583 ft | 434 kts | 283° |
| 2026-04-23 10:29 | 53.44700 | -1.21910 | 36589 ft | 435 kts | 283° |
| 2026-04-23 10:30 | 53.45904 | -1.31847 | 36589 ft | 435 kts | 283° |
| 2026-04-23 10:30 | 53.47101 | -1.41791 | 36591 ft | 435 kts | 283° |
| 2026-04-23 10:31 | 53.48292 | -1.51748 | 36587 ft | 435 kts | 282° |
| 2026-04-23 10:31 | 53.49460 | -1.61654 | 36580 ft | 429 kts | 283° |
| 2026-04-23 10:32 | 53.50611 | -1.71487 | 36582 ft | 429 kts | 283° |
| 2026-04-23 10:32 | 53.51758 | -1.81330 | 36583 ft | 429 kts | 283° |
| 2026-04-23 10:33 | 53.52892 | -1.91116 | 36893 ft | 421 kts | 283° |
| 2026-04-23 10:33 | 53.53440 | -1.95881 | 37236 ft | 410 kts | 283° |
| 2026-04-23 10:33 | 53.53981 | -2.00582 | 37484 ft | 410 kts | 283° |
| 2026-04-23 10:34 | 53.54524 | -2.05303 | 37642 ft | 412 kts | 282° |
| 2026-04-23 10:34 | 53.55056 | -2.09981 | 37787 ft | 414 kts | 282° |
| 2026-04-23 10:34 | 53.55597 | -2.14756 | 37937 ft | 417 kts | 282° |
| 2026-04-23 10:34 | 53.56144 | -2.19552 | 38077 ft | 419 kts | 282° |
| 2026-04-23 10:35 | 53.56689 | -2.24380 | 38224 ft | 421 kts | 282° |
| 2026-04-23 10:35 | 53.57229 | -2.29226 | 38347 ft | 423 kts | 282° |
| 2026-04-23 10:35 | 53.57770 | -2.34102 | 38489 ft | 425 kts | 282° |
| 2026-04-23 10:35 | 53.58314 | -2.38999 | 38581 ft | 428 kts | 282° |
| 2026-04-23 10:36 | 53.59412 | -2.48918 | 38567 ft | 433 kts | 282° |
| 2026-04-23 10:36 | 53.60506 | -2.58887 | 38551 ft | 433 kts | 282° |
| 2026-04-23 10:37 | 53.61592 | -2.68856 | 38548 ft | 432 kts | 282° |
| 2026-04-23 10:37 | 53.62665 | -2.78823 | 38547 ft | 432 kts | 282° |
| 2026-04-23 10:38 | 53.63730 | -2.88795 | 38531 ft | 432 kts | 282° |
| 2026-04-23 10:38 | 53.64609 | -2.97076 | 38526 ft | 432 kts | 282° |
| 2026-04-23 10:39 | 53.65838 | -3.08672 | 38526 ft | 432 kts | 282° |
| 2026-04-23 10:39 | 53.66886 | -3.18612 | 38529 ft | 428 kts | 282° |
| 2026-04-23 10:40 | 53.67747 | -3.26893 | 38529 ft | 428 kts | 282° |
| 2026-04-23 10:40 | 53.68766 | -3.36807 | 38531 ft | 430 kts | 282° |
| 2026-04-23 10:41 | 53.69774 | -3.46727 | 38527 ft | 429 kts | 282° |
| 2026-04-23 10:41 | 53.70781 | -3.56665 | 38528 ft | 430 kts | 281° |
| 2026-04-23 10:42 | 53.71776 | -3.66616 | 38532 ft | 428 kts | 280° |
| 2026-04-23 10:42 | 53.72743 | -3.76380 | 38516 ft | 419 kts | 280° |
| 2026-04-23 10:43 | 53.73693 | -3.86015 | 38513 ft | 416 kts | 280° |
| 2026-04-23 10:43 | 53.74635 | -3.95700 | 38521 ft | 420 kts | 280° |
| 2026-04-23 10:44 | 53.75577 | -4.05403 | 38507 ft | 418 kts | 280° |
| 2026-04-23 10:44 | 53.76497 | -4.14994 | 38507 ft | 414 kts | 279° |
| 2026-04-23 10:45 | 53.77418 | -4.24679 | 38506 ft | 421 kts | 279° |
| 2026-04-23 10:45 | 53.78338 | -4.34475 | 38510 ft | 421 kts | 279° |
| 2026-04-23 10:46 | 53.79251 | -4.44236 | 38506 ft | 420 kts | 279° |
| 2026-04-23 10:46 | 53.80009 | -4.54034 | 38506 ft | 421 kts | 274° |
| 2026-04-23 10:47 | 53.80352 | -4.63938 | 38507 ft | 421 kts | 273° |
| 2026-04-23 10:47 | 53.80669 | -4.73800 | 38499 ft | 420 kts | 273° |
| 2026-04-23 10:48 | 53.80993 | -4.83671 | 38496 ft | 421 kts | 273° |
| 2026-04-23 10:48 | 53.81309 | -4.93541 | 38498 ft | 419 kts | 273° |
| 2026-04-23 10:49 | 53.81614 | -5.03376 | 38494 ft | 419 kts | 273° |
| 2026-04-23 10:49 | 53.81911 | -5.13260 | 38496 ft | 420 kts | 273° |
| 2026-04-23 10:50 | 53.82199 | -5.23107 | 38485 ft | 418 kts | 273° |
| 2026-04-23 10:50 | 53.82484 | -5.33034 | 38490 ft | 425 kts | 272° |
| 2026-04-23 10:51 | 53.82760 | -5.43008 | 38503 ft | 424 kts | 272° |
| 2026-04-23 10:51 | 53.83393 | -5.52912 | 38499 ft | 425 kts | 283° |
| 2026-04-23 10:52 | 53.84928 | -5.62574 | 38500 ft | 425 kts | 285° |
| 2026-04-23 10:52 | 53.86483 | -5.72236 | 38498 ft | 425 kts | 284° |
| 2026-04-23 10:53 | 53.88006 | -5.81901 | 38497 ft | 423 kts | 284° |
| 2026-04-23 10:53 | 53.89506 | -5.91563 | 38496 ft | 424 kts | 284° |
| 2026-04-23 10:54 | 53.91008 | -6.01252 | 38499 ft | 426 kts | 284° |
| 2026-04-23 10:54 | 53.92501 | -6.10954 | 38492 ft | 425 kts | 284° |
| 2026-04-23 10:55 | 53.93986 | -6.20650 | 38496 ft | 424 kts | 283° |
| 2026-04-23 10:55 | 53.95461 | -6.30340 | 38495 ft | 425 kts | 283° |
| 2026-04-23 10:56 | 53.96932 | -6.40087 | 38483 ft | 427 kts | 283° |
| 2026-04-23 10:56 | 53.98394 | -6.49807 | 38488 ft | 427 kts | 283° |
| 2026-04-23 10:57 | 53.99869 | -6.59587 | 38480 ft | 427 kts | 282° |
| 2026-04-23 10:57 | 54.01329 | -6.69381 | 38482 ft | 428 kts | 282° |
| 2026-04-23 10:58 | 54.02777 | -6.79188 | 38473 ft | 427 kts | 283° |
| 2026-04-23 10:58 | 54.04221 | -6.89005 | 38472 ft | 429 kts | 282° |
| 2026-04-23 10:59 | 54.05659 | -6.98866 | 38464 ft | 429 kts | 281° |
| 2026-04-23 10:59 | 54.07090 | -7.08720 | 38464 ft | 429 kts | 282° |
| 2026-04-23 11:00 | 54.08512 | -7.18593 | 38462 ft | 429 kts | 281° |
| 2026-04-23 11:00 | 54.09924 | -7.28462 | 38452 ft | 429 kts | 281° |
| 2026-04-23 11:01 | 54.11329 | -7.38334 | 38450 ft | 429 kts | 281° |
| 2026-04-23 11:01 | 54.12727 | -7.48248 | 38440 ft | 432 kts | 281° |
| 2026-04-23 11:02 | 54.14129 | -7.58227 | 38441 ft | 433 kts | 281° |
| 2026-04-23 11:02 | 54.15521 | -7.68216 | 38428 ft | 433 kts | 281° |
| 2026-04-23 11:03 | 54.16907 | -7.78216 | 38426 ft | 433 kts | 281° |
| 2026-04-23 11:03 | 54.18286 | -7.88223 | 38416 ft | 433 kts | 281° |
| 2026-04-23 11:04 | 54.19654 | -7.98232 | 38423 ft | 433 kts | 281° |
| 2026-04-23 11:04 | 54.21020 | -8.08296 | 38409 ft | 436 kts | 280° |
| 2026-04-23 11:05 | 54.22380 | -8.18398 | 38411 ft | 436 kts | 280° |
| 2026-04-23 11:05 | 54.23722 | -8.28405 | 38403 ft | 434 kts | 280° |
| 2026-04-23 11:06 | 54.25726 | -8.43511 | 38395 ft | 434 kts | 280° |
| 2026-04-23 11:07 | 54.27055 | -8.53591 | 38427 ft | 434 kts | 280° |
| 2026-04-23 11:07 | 54.28377 | -8.63728 | 38420 ft | 437 kts | 280° |
| 2026-04-23 11:08 | 54.29698 | -8.73890 | 38410 ft | 438 kts | 280° |
| 2026-04-23 11:08 | 54.31011 | -8.84068 | 38402 ft | 438 kts | 279° |
| 2026-04-23 11:09 | 54.32310 | -8.94246 | 38409 ft | 437 kts | 279° |
| 2026-04-23 11:09 | 54.33602 | -9.04428 | 38395 ft | 437 kts | 279° |
| 2026-04-23 11:10 | 54.34891 | -9.14619 | 38391 ft | 438 kts | 279° |
| 2026-04-23 11:10 | 54.36171 | -9.24842 | 38377 ft | 438 kts | 279° |
| 2026-04-23 11:11 | 54.37441 | -9.35058 | 38385 ft | 438 kts | 279° |
| 2026-04-23 11:11 | 54.38698 | -9.45282 | 38387 ft | 438 kts | 279° |
| 2026-04-23 11:12 | 54.39952 | -9.55505 | 38380 ft | 438 kts | 278° |
| 2026-04-23 11:12 | 54.41191 | -9.65729 | 38408 ft | 438 kts | 278° |
| 2026-04-23 11:13 | 54.42427 | -9.75976 | 38381 ft | 438 kts | 278° |
| 2026-04-23 11:13 | 54.43658 | -9.86229 | 38380 ft | 438 kts | 278° |
| 2026-04-23 11:14 | 54.44879 | -9.96496 | 38382 ft | 438 kts | 278° |
| 2026-04-23 11:14 | 54.46088 | -10.06764 | 38381 ft | 439 kts | 278° |
| 2026-04-23 11:15 | 54.46827 | -10.17032 | 38376 ft | 434 kts | 269° |
| 2026-04-23 11:15 | 54.47075 | -10.27393 | 38386 ft | 434 kts | 268° |
| 2026-04-23 11:16 | 54.47324 | -10.37764 | 38371 ft | 434 kts | 268° |
| 2026-04-23 11:16 | 54.47577 | -10.48122 | 38366 ft | 434 kts | 268° |
| 2026-04-23 11:17 | 54.47819 | -10.58483 | 38356 ft | 433 kts | 268° |
| 2026-04-23 11:17 | 54.48054 | -10.68833 | 38357 ft | 433 kts | 268° |
| 2026-04-23 11:18 | 54.48280 | -10.79187 | 38372 ft | 433 kts | 268° |
| 2026-04-23 11:18 | 54.48499 | -10.89556 | 38359 ft | 434 kts | 268° |
| 2026-04-23 11:19 | 54.48706 | -10.99928 | 38357 ft | 434 kts | 268° |
| 2026-04-23 11:19 | 54.48911 | -11.10305 | 38358 ft | 434 kts | 268° |
| 2026-04-23 11:20 | 54.49102 | -11.20681 | 38352 ft | 434 kts | 267° |
| 2026-04-23 11:20 | 54.49284 | -11.31048 | 38349 ft | 433 kts | 267° |
| 2026-04-23 11:21 | 54.49456 | -11.41411 | 38349 ft | 433 kts | 267° |
| 2026-04-23 11:21 | 54.49620 | -11.51776 | 38344 ft | 433 kts | 267° |
| 2026-04-23 11:22 | 54.49779 | -11.62141 | 38340 ft | 433 kts | 267° |
| 2026-04-23 11:22 | 54.49927 | -11.72500 | 38337 ft | 433 kts | 267° |
| 2026-04-23 11:23 | 54.50061 | -11.82861 | 38336 ft | 433 kts | 267° |
| 2026-04-23 11:23 | 54.50194 | -11.93230 | 38344 ft | 434 kts | 266° |
| 2026-04-23 11:24 | 54.50313 | -12.03619 | 38333 ft | 434 kts | 266° |
| 2026-04-23 11:24 | 54.50427 | -12.13946 | 38325 ft | 434 kts | 266° |
| 2026-04-23 11:25 | 54.50526 | -12.24338 | 38319 ft | 434 kts | 266° |
| 2026-04-23 11:25 | 54.50621 | -12.34727 | 38320 ft | 434 kts | 266° |
| 2026-04-23 11:26 | 54.50707 | -12.45122 | 38332 ft | 435 kts | 266° |
| 2026-04-23 11:26 | 54.50784 | -12.55557 | 38318 ft | 436 kts | 266° |
| 2026-04-23 11:27 | 54.50849 | -12.65993 | 38317 ft | 436 kts | 266° |
| 2026-04-23 11:27 | 54.50904 | -12.76433 | 38306 ft | 436 kts | 266° |
| 2026-04-23 11:28 | 54.50949 | -12.85112 | 38306 ft | 436 kts | 266° |
| 2026-04-23 11:28 | 54.50997 | -12.95546 | 38307 ft | 436 kts | 265° |
| 2026-04-23 11:29 | 54.51027 | -13.06004 | 38304 ft | 438 kts | 265° |
| 2026-04-23 11:29 | 54.51042 | -13.16494 | 38299 ft | 438 kts | 265° |
| 2026-04-23 11:30 | 54.51047 | -13.26971 | 38293 ft | 438 kts | 265° |
| 2026-04-23 11:30 | 54.51048 | -13.37451 | 38293 ft | 438 kts | 265° |
| 2026-04-23 11:31 | 54.51042 | -13.47926 | 38289 ft | 438 kts | 265° |
| 2026-04-23 11:31 | 54.51026 | -13.58406 | 38302 ft | 439 kts | 264° |
| 2026-04-23 11:32 | 54.51003 | -13.68938 | 38282 ft | 440 kts | 265° |
| 2026-04-23 11:32 | 54.50978 | -13.79469 | 38280 ft | 440 kts | 264° |
| 2026-04-23 11:33 | 54.50938 | -13.89997 | 38276 ft | 440 kts | 264° |
| 2026-04-23 11:33 | 54.50887 | -14.00524 | 38275 ft | 440 kts | 264° |
| 2026-04-23 11:34 | 54.50827 | -14.11054 | 38283 ft | 442 kts | 264° |
| 2026-04-23 11:34 | 54.50769 | -14.21647 | 38269 ft | 443 kts | 264° |
| 2026-04-23 11:35 | 54.50690 | -14.32249 | 38256 ft | 443 kts | 264° |
| 2026-04-23 11:35 | 54.50603 | -14.42849 | 38261 ft | 443 kts | 264° |
| 2026-04-23 11:36 | 54.50511 | -14.53456 | 38253 ft | 443 kts | 264° |
| 2026-04-23 11:36 | 54.50407 | -14.63984 | 38279 ft | 443 kts | 264° |
| 2026-04-23 11:37 | 54.50292 | -14.74639 | 38250 ft | 446 kts | 263° |
| 2026-04-23 11:37 | 54.50173 | -14.85320 | 38240 ft | 447 kts | 263° |
| 2026-04-23 11:38 | 54.50046 | -14.96005 | 38238 ft | 447 kts | 264° |
| 2026-04-23 11:38 | 54.50740 | -15.06676 | 38229 ft | 450 kts | 277° |
| 2026-04-23 11:39 | 54.52044 | -15.17213 | 38229 ft | 450 kts | 277° |
| 2026-04-23 11:39 | 54.53341 | -15.27803 | 38227 ft | 453 kts | 277° |
| 2026-04-23 11:40 | 54.54599 | -15.38447 | 38228 ft | 453 kts | 277° |
| 2026-04-23 11:40 | 54.55841 | -15.49064 | 38218 ft | 452 kts | 277° |
| 2026-04-23 11:41 | 54.57080 | -15.59685 | 38222 ft | 452 kts | 277° |
| 2026-04-23 11:41 | 54.58316 | -15.70305 | 38214 ft | 452 kts | 276° |
| 2026-04-23 11:42 | 54.59541 | -15.80938 | 38238 ft | 453 kts | 277° |
| 2026-04-23 11:42 | 54.60770 | -15.91634 | 38209 ft | 456 kts | 276° |
| 2026-04-23 11:43 | 54.61985 | -16.02367 | 38206 ft | 456 kts | 276° |
| 2026-04-23 11:43 | 54.63196 | -16.13102 | 38202 ft | 456 kts | 276° |
| 2026-04-23 11:44 | 54.64393 | -16.23850 | 38192 ft | 456 kts | 276° |
| 2026-04-23 11:44 | 54.65571 | -16.34598 | 38195 ft | 456 kts | 276° |
| 2026-04-23 11:45 | 54.66753 | -16.45365 | 38197 ft | 457 kts | 276° |
| 2026-04-23 11:45 | 54.67925 | -16.56151 | 38190 ft | 457 kts | 276° |
| 2026-04-23 11:46 | 54.69083 | -16.66947 | 38187 ft | 457 kts | 276° |
| 2026-04-23 11:46 | 54.70243 | -16.77735 | 38187 ft | 457 kts | 276° |
| 2026-04-23 11:47 | 54.71381 | -16.88470 | 38188 ft | 457 kts | 276° |
| 2026-04-23 11:47 | 54.72521 | -16.99274 | 38187 ft | 457 kts | 276° |
| 2026-04-23 11:48 | 54.73642 | -17.10086 | 38185 ft | 457 kts | 276° |
| 2026-04-23 11:48 | 54.74749 | -17.20906 | 38168 ft | 457 kts | 276° |
| 2026-04-23 11:49 | 54.75848 | -17.31728 | 38176 ft | 457 kts | 275° |
| 2026-04-23 11:49 | 54.76937 | -17.42557 | 38173 ft | 456 kts | 275° |
| 2026-04-23 11:50 | 54.78017 | -17.53387 | 38169 ft | 456 kts | 275° |
| 2026-04-23 11:50 | 54.79092 | -17.64232 | 38170 ft | 458 kts | 275° |
| 2026-04-23 11:51 | 54.80183 | -17.75127 | 38176 ft | 459 kts | 275° |
| 2026-04-23 11:51 | 54.81236 | -17.86041 | 38153 ft | 459 kts | 275° |
| 2026-04-23 11:52 | 54.82285 | -17.96961 | 38151 ft | 459 kts | 275° |
| 2026-04-23 11:52 | 54.83334 | -18.07883 | 38163 ft | 459 kts | 275° |
| 2026-04-23 11:53 | 54.84370 | -18.18809 | 38151 ft | 459 kts | 275° |
| 2026-04-23 11:53 | 54.85388 | -18.29760 | 38148 ft | 461 kts | 275° |
| 2026-04-23 11:54 | 54.86413 | -18.40750 | 38126 ft | 461 kts | 275° |
| 2026-04-23 11:54 | 54.87423 | -18.51759 | 38120 ft | 462 kts | 275° |
| 2026-04-23 11:55 | 54.88406 | -18.62675 | 38113 ft | 459 kts | 275° |
| 2026-04-23 11:55 | 54.89380 | -18.73634 | 38115 ft | 459 kts | 275° |
| 2026-04-23 11:56 | 54.90351 | -18.84606 | 38127 ft | 460 kts | 275° |
| 2026-04-23 11:56 | 54.91328 | -18.95625 | 38111 ft | 462 kts | 275° |
| 2026-04-23 11:57 | 54.92281 | -19.06652 | 38100 ft | 461 kts | 274° |
| 2026-04-23 11:57 | 54.93224 | -19.17691 | 38098 ft | 462 kts | 275° |
| 2026-04-23 11:58 | 54.94161 | -19.28730 | 38100 ft | 462 kts | 274° |
| 2026-04-23 11:58 | 54.95094 | -19.39780 | 38080 ft | 462 kts | 274° |
| 2026-04-23 11:59 | 54.96014 | -19.50851 | 38103 ft | 463 kts | 274° |
| 2026-04-23 11:59 | 54.96916 | -19.61957 | 38085 ft | 464 kts | 274° |
| 2026-04-23 12:00 | 54.97816 | -19.73056 | 38078 ft | 461 kts | 274° |
| 2026-04-23 12:00 | 54.98717 | -19.84110 | 38073 ft | 461 kts | 274° |
| 2026-04-23 12:01 | 54.99608 | -19.95084 | 38079 ft | 461 kts | 274° |
| 2026-04-23 12:01 | 55.00550 | -20.06129 | 38097 ft | 461 kts | 275° |
| 2026-04-23 12:02 | 55.01548 | -20.17185 | 38073 ft | 462 kts | 275° |
| 2026-04-23 12:02 | 55.02544 | -20.28261 | 38069 ft | 463 kts | 275° |
| 2026-04-23 12:03 | 55.03532 | -20.39339 | 38062 ft | 463 kts | 275° |
| 2026-04-23 12:03 | 55.04511 | -20.50427 | 38061 ft | 463 kts | 275° |
| 2026-04-23 12:04 | 55.05482 | -20.61512 | 38051 ft | 462 kts | 275° |
| 2026-04-23 12:04 | 55.06438 | -20.72616 | 38059 ft | 463 kts | 275° |
| 2026-04-23 12:05 | 55.07385 | -20.83699 | 38046 ft | 462 kts | 275° |
| 2026-04-23 12:05 | 55.08320 | -20.94784 | 38047 ft | 462 kts | 275° |
| 2026-04-23 12:06 | 55.09245 | -21.05870 | 38036 ft | 461 kts | 275° |
| 2026-04-23 12:06 | 55.10608 | -21.22502 | 38054 ft | 461 kts | 275° |
| 2026-04-23 12:07 | 55.11499 | -21.33595 | 38061 ft | 462 kts | 275° |
| 2026-04-23 12:07 | 55.12390 | -21.44735 | 38040 ft | 463 kts | 275° |
| 2026-04-23 12:08 | 55.13265 | -21.55808 | 38026 ft | 463 kts | 275° |
| 2026-04-23 12:08 | 55.14147 | -21.66953 | 38041 ft | 463 kts | 275° |
| 2026-04-23 12:09 | 55.15011 | -21.78110 | 38023 ft | 463 kts | 274° |
| 2026-04-23 12:09 | 55.15861 | -21.89210 | 38020 ft | 460 kts | 274° |
| 2026-04-23 12:10 | 55.16694 | -22.00315 | 38041 ft | 461 kts | 274° |
| 2026-04-23 12:10 | 55.17529 | -22.11439 | 38021 ft | 462 kts | 274° |
| 2026-04-23 12:11 | 55.18352 | -22.22581 | 38019 ft | 462 kts | 274° |
| 2026-04-23 12:11 | 55.19161 | -22.33727 | 38009 ft | 462 kts | 274° |
| 2026-04-23 12:12 | 55.19960 | -22.44873 | 38011 ft | 462 kts | 274° |
| 2026-04-23 12:12 | 55.20747 | -22.56018 | 38017 ft | 461 kts | 274° |
| 2026-04-23 12:13 | 55.21523 | -22.67198 | 38020 ft | 463 kts | 274° |
| 2026-04-23 12:13 | 55.22295 | -22.78411 | 38009 ft | 464 kts | 274° |
| 2026-04-23 12:14 | 55.23051 | -22.89513 | 38015 ft | 460 kts | 273° |
| 2026-04-23 12:14 | 55.23788 | -23.00636 | 38011 ft | 460 kts | 273° |
| 2026-04-23 12:15 | 55.24516 | -23.11768 | 38018 ft | 460 kts | 273° |
| 2026-04-23 12:15 | 55.25243 | -23.22899 | 38004 ft | 460 kts | 273° |
| 2026-04-23 12:16 | 55.25956 | -23.34039 | 38009 ft | 460 kts | 273° |
| 2026-04-23 12:16 | 55.26657 | -23.45186 | 38014 ft | 460 kts | 272° |
| 2026-04-23 12:17 | 55.27350 | -23.56331 | 38013 ft | 460 kts | 272° |
| 2026-04-23 12:17 | 55.28036 | -23.67481 | 38002 ft | 460 kts | 272° |
| 2026-04-23 12:18 | 55.28714 | -23.78631 | 38008 ft | 460 kts | 272° |
| 2026-04-23 12:18 | 55.29266 | -23.87912 | 38013 ft | 460 kts | 272° |
| 2026-04-23 12:19 | 55.29917 | -23.99021 | 38003 ft | 457 kts | 272° |
| 2026-04-23 12:19 | 55.30558 | -24.10116 | 38006 ft | 458 kts | 272° |
| 2026-04-23 12:20 | 55.31192 | -24.21225 | 37992 ft | 457 kts | 272° |
| 2026-04-23 12:20 | 55.31813 | -24.32327 | 38001 ft | 457 kts | 272° |
| 2026-04-23 12:21 | 55.32427 | -24.43446 | 37997 ft | 457 kts | 272° |
| 2026-04-23 12:21 | 55.33030 | -24.54564 | 38014 ft | 458 kts | 272° |
| 2026-04-23 12:22 | 55.33622 | -24.65724 | 37997 ft | 460 kts | 272° |
| 2026-04-23 12:22 | 55.34206 | -24.76907 | 37997 ft | 459 kts | 272° |
| 2026-04-23 12:23 | 55.34759 | -24.88080 | 37984 ft | 459 kts | 271° |
| 2026-04-23 12:23 | 55.35307 | -24.99264 | 37990 ft | 458 kts | 271° |
| 2026-04-23 12:24 | 55.35858 | -25.10303 | 37988 ft | 457 kts | 271° |
| 2026-04-23 12:24 | 55.36402 | -25.21464 | 37995 ft | 460 kts | 271° |
| 2026-04-23 12:25 | 55.36943 | -25.32647 | 37989 ft | 457 kts | 272° |
| 2026-04-23 12:25 | 55.37467 | -25.43790 | 37989 ft | 458 kts | 271° |
| 2026-04-23 12:26 | 55.37969 | -25.54969 | 37989 ft | 459 kts | 271° |
| 2026-04-23 12:26 | 55.38472 | -25.66120 | 37977 ft | 458 kts | 271° |
| 2026-04-23 12:27 | 55.38964 | -25.77306 | 37998 ft | 460 kts | 271° |
| 2026-04-23 12:27 | 55.39445 | -25.88514 | 37998 ft | 459 kts | 271° |
| 2026-04-23 12:28 | 55.39914 | -25.99719 | 37988 ft | 460 kts | 270° |
| 2026-04-23 12:28 | 55.40376 | -26.10938 | 37983 ft | 459 kts | 271° |
| 2026-04-23 12:29 | 55.40832 | -26.22075 | 37973 ft | 457 kts | 271° |
| 2026-04-23 12:29 | 55.41272 | -26.33256 | 37991 ft | 458 kts | 271° |
| 2026-04-23 12:30 | 55.41698 | -26.44415 | 38003 ft | 455 kts | 271° |
| 2026-04-23 12:30 | 55.42119 | -26.55602 | 37991 ft | 460 kts | 270° |
| 2026-04-23 12:31 | 55.42531 | -26.66820 | 38001 ft | 458 kts | 270° |
| 2026-04-23 12:31 | 55.42928 | -26.78025 | 37990 ft | 459 kts | 271° |
| 2026-04-23 12:32 | 55.43321 | -26.89258 | 37977 ft | 459 kts | 270° |
| 2026-04-23 12:32 | 55.43699 | -27.00454 | 37980 ft | 458 kts | 270° |
| 2026-04-23 12:33 | 55.44055 | -27.11686 | 37989 ft | 462 kts | 271° |
| 2026-04-23 12:33 | 55.44405 | -27.22946 | 37991 ft | 457 kts | 271° |
| 2026-04-23 12:34 | 55.44753 | -27.34181 | 37978 ft | 463 kts | 270° |
| 2026-04-23 12:34 | 55.45094 | -27.45405 | 37989 ft | 460 kts | 271° |
| 2026-04-23 12:35 | 55.45419 | -27.56644 | 37993 ft | 460 kts | 270° |
| 2026-04-23 12:35 | 55.45735 | -27.67943 | 37986 ft | 461 kts | 270° |
| 2026-04-23 12:36 | 55.46043 | -27.79193 | 37982 ft | 461 kts | 271° |
| 2026-04-23 12:36 | 55.46343 | -27.90512 | 37988 ft | 464 kts | 270° |
| 2026-04-23 12:37 | 55.46631 | -28.01815 | 37995 ft | 460 kts | 270° |
| 2026-04-23 12:37 | 55.46914 | -28.13147 | 37982 ft | 465 kts | 270° |
| 2026-04-23 12:38 | 55.47180 | -28.24492 | 37983 ft | 461 kts | 270° |
| 2026-04-23 12:38 | 55.47438 | -28.35778 | 37995 ft | 463 kts | 270° |
| 2026-04-23 12:39 | 55.47681 | -28.47159 | 38005 ft | 463 kts | 271° |
| 2026-04-23 12:39 | 55.47920 | -28.58467 | 37994 ft | 463 kts | 270° |
| 2026-04-23 12:40 | 55.48146 | -28.69853 | 37993 ft | 465 kts | 270° |
| 2026-04-23 12:40 | 55.48364 | -28.81183 | 37984 ft | 463 kts | 270° |
| 2026-04-23 12:41 | 55.48568 | -28.92579 | 37991 ft | 465 kts | 270° |
| 2026-04-23 12:41 | 55.48762 | -29.03957 | 37992 ft | 464 kts | 270° |
| 2026-04-23 12:42 | 55.48947 | -29.15385 | 37976 ft | 468 kts | 270° |
| 2026-04-23 12:42 | 55.49121 | -29.26809 | 37991 ft | 464 kts | 270° |
| 2026-04-23 12:43 | 55.49286 | -29.38224 | 37991 ft | 468 kts | 269° |
| 2026-04-23 12:43 | 55.49440 | -29.49648 | 37994 ft | 462 kts | 270° |
| 2026-04-23 12:44 | 55.49583 | -29.61010 | 37987 ft | 467 kts | 270° |
| 2026-04-23 12:44 | 55.49716 | -29.72442 | 38010 ft | 464 kts | 269° |
| 2026-04-23 12:45 | 55.49834 | -29.83805 | 38001 ft | 465 kts | 269° |
| 2026-04-23 12:45 | 55.49946 | -29.95240 | 38002 ft | 464 kts | 269° |
| 2026-04-23 12:46 | 55.50243 | -30.06623 | 37990 ft | 465 kts | 272° |
| 2026-04-23 12:46 | 55.50694 | -30.18042 | 38003 ft | 467 kts | 272° |
| 2026-04-23 12:47 | 55.51140 | -30.29328 | 37998 ft | 464 kts | 272° |
| 2026-04-23 12:47 | 55.51567 | -30.40695 | 38004 ft | 466 kts | 272° |
| 2026-04-23 12:48 | 55.51991 | -30.52050 | 38019 ft | 462 kts | 272° |
| 2026-04-23 12:48 | 55.52405 | -30.63397 | 38016 ft | 466 kts | 271° |
| 2026-04-23 12:49 | 55.52814 | -30.74798 | 38021 ft | 464 kts | 272° |
| 2026-04-23 12:49 | 55.53204 | -30.86135 | 38031 ft | 463 kts | 271° |
| 2026-04-23 12:50 | 55.53580 | -30.97530 | 38027 ft | 464 kts | 271° |
| 2026-04-23 12:50 | 55.53939 | -31.08867 | 38031 ft | 462 kts | 271° |
| 2026-04-23 12:51 | 55.54287 | -31.20230 | 38020 ft | 465 kts | 272° |
| 2026-04-23 12:51 | 55.54637 | -31.31586 | 38033 ft | 459 kts | 272° |
| 2026-04-23 12:52 | 55.54971 | -31.42899 | 38026 ft | 465 kts | 271° |
| 2026-04-23 12:52 | 55.55295 | -31.54276 | 38037 ft | 461 kts | 272° |
| 2026-04-23 12:53 | 55.55612 | -31.65568 | 38049 ft | 462 kts | 271° |
| 2026-04-23 12:53 | 55.55917 | -31.76954 | 38049 ft | 464 kts | 272° |
| 2026-04-23 12:54 | 55.56212 | -31.88259 | 38047 ft | 462 kts | 272° |
| 2026-04-23 12:54 | 55.56495 | -31.99641 | 38048 ft | 464 kts | 272° |
| 2026-04-23 12:55 | 55.56764 | -32.10985 | 38047 ft | 461 kts | 271° |
| 2026-04-23 12:55 | 55.57026 | -32.22357 | 38037 ft | 466 kts | 271° |
| 2026-04-23 12:56 | 55.57275 | -32.33743 | 38053 ft | 462 kts | 271° |
| 2026-04-23 12:56 | 55.57512 | -32.45081 | 38060 ft | 464 kts | 271° |
| 2026-04-23 12:57 | 55.57739 | -32.56477 | 38067 ft | 462 kts | 271° |
| 2026-04-23 12:57 | 55.57961 | -32.67784 | 38055 ft | 462 kts | 271° |
| 2026-04-23 12:58 | 55.58170 | -32.79159 | 38070 ft | 463 kts | 271° |
| 2026-04-23 12:58 | 55.58371 | -32.90479 | 38068 ft | 461 kts | 271° |
| 2026-04-23 12:59 | 55.58561 | -33.01793 | 38071 ft | 462 kts | 271° |
| 2026-04-23 12:59 | 55.58740 | -33.13141 | 38068 ft | 462 kts | 271° |
| 2026-04-23 13:00 | 55.58909 | -33.24522 | 38078 ft | 464 kts | 271° |
| 2026-04-23 13:00 | 55.59063 | -33.35866 | 38082 ft | 459 kts | 271° |
| 2026-04-23 13:01 | 55.59207 | -33.47201 | 38072 ft | 463 kts | 270° |
| 2026-04-23 13:01 | 55.59348 | -33.58555 | 38087 ft | 459 kts | 271° |
| 2026-04-23 13:02 | 55.59475 | -33.69876 | 38083 ft | 464 kts | 270° |
| 2026-04-23 13:02 | 55.59591 | -33.81250 | 38094 ft | 461 kts | 270° |
| 2026-04-23 13:03 | 55.59696 | -33.92587 | 38081 ft | 462 kts | 270° |
| 2026-04-23 13:03 | 55.59790 | -34.03973 | 38097 ft | 461 kts | 270° |
| 2026-04-23 13:04 | 55.59874 | -34.15279 | 38083 ft | 461 kts | 270° |
| 2026-04-23 13:04 | 55.59949 | -34.26633 | 38098 ft | 461 kts | 270° |
| 2026-04-23 13:05 | 55.60011 | -34.37949 | 38101 ft | 460 kts | 270° |
| 2026-04-23 13:05 | 55.60057 | -34.49310 | 38101 ft | 462 kts | 270° |
| 2026-04-23 13:06 | 55.60121 | -34.66236 | 38093 ft | 463 kts | 270° |
| 2026-04-23 13:07 | 55.60157 | -34.77598 | 38110 ft | 459 kts | 270° |
| 2026-04-23 13:07 | 55.60177 | -34.88918 | 38107 ft | 462 kts | 269° |
| 2026-04-23 13:08 | 55.60183 | -34.98439 | 38108 ft | 462 kts | 269° |
| 2026-04-23 13:08 | 55.60173 | -35.09755 | 38113 ft | 460 kts | 269° |
| 2026-04-23 13:09 | 55.60154 | -35.21102 | 38113 ft | 461 kts | 269° |
| 2026-04-23 13:09 | 55.60131 | -35.32413 | 38112 ft | 460 kts | 269° |
| 2026-04-23 13:10 | 55.60095 | -35.43753 | 38113 ft | 461 kts | 269° |
| 2026-04-23 13:10 | 55.60056 | -35.55053 | 38130 ft | 459 kts | 269° |
| 2026-04-23 13:11 | 55.59996 | -35.66379 | 38133 ft | 461 kts | 269° |
| 2026-04-23 13:11 | 55.59928 | -35.77675 | 38128 ft | 459 kts | 269° |
| 2026-04-23 13:12 | 55.59855 | -35.89002 | 38122 ft | 461 kts | 269° |
| 2026-04-23 13:12 | 55.59772 | -36.00234 | 38130 ft | 460 kts | 269° |
| 2026-04-23 13:13 | 55.59672 | -36.11568 | 38121 ft | 461 kts | 269° |
| 2026-04-23 13:13 | 55.59562 | -36.22865 | 38135 ft | 460 kts | 269° |
| 2026-04-23 13:14 | 55.59441 | -36.34173 | 38135 ft | 460 kts | 269° |
| 2026-04-23 13:14 | 55.59313 | -36.45458 | 38134 ft | 459 kts | 269° |
| 2026-04-23 13:15 | 55.59175 | -36.56766 | 38137 ft | 460 kts | 269° |
| 2026-04-23 13:15 | 55.59024 | -36.68057 | 38147 ft | 459 kts | 268° |
| 2026-04-23 13:16 | 55.58863 | -36.79365 | 38143 ft | 460 kts | 268° |
| 2026-04-23 13:16 | 55.58692 | -36.90648 | 38138 ft | 459 kts | 268° |
| 2026-04-23 13:17 | 55.58509 | -37.01951 | 38139 ft | 460 kts | 268° |
| 2026-04-23 13:17 | 55.58319 | -37.13237 | 38152 ft | 459 kts | 269° |
| 2026-04-23 13:18 | 55.58121 | -37.24526 | 38147 ft | 460 kts | 268° |
| 2026-04-23 13:18 | 55.57912 | -37.35810 | 38155 ft | 459 kts | 268° |
| 2026-04-23 13:19 | 55.57691 | -37.47101 | 38156 ft | 460 kts | 268° |
| 2026-04-23 13:19 | 55.57460 | -37.58378 | 38150 ft | 459 kts | 268° |
| 2026-04-23 13:20 | 55.57217 | -37.69667 | 38159 ft | 460 kts | 268° |
| 2026-04-23 13:20 | 55.56962 | -37.80935 | 38156 ft | 459 kts | 268° |
| 2026-04-23 13:21 | 55.56700 | -37.92195 | 38165 ft | 459 kts | 268° |
| 2026-04-23 13:21 | 55.56428 | -38.03449 | 38158 ft | 459 kts | 268° |
| 2026-04-23 13:22 | 55.56144 | -38.14713 | 38160 ft | 459 kts | 268° |
| 2026-04-23 13:22 | 55.55850 | -38.25967 | 38163 ft | 459 kts | 268° |
| 2026-04-23 13:23 | 55.55550 | -38.37146 | 38160 ft | 458 kts | 268° |
| 2026-04-23 13:23 | 55.55232 | -38.48476 | 38166 ft | 459 kts | 268° |
| 2026-04-23 13:24 | 55.54909 | -38.59638 | 38160 ft | 458 kts | 267° |
| 2026-04-23 13:24 | 55.54572 | -38.70954 | 38159 ft | 459 kts | 267° |
| 2026-04-23 13:25 | 55.54228 | -38.82189 | 38155 ft | 458 kts | 267° |
| 2026-04-23 13:25 | 55.53873 | -38.93353 | 38157 ft | 459 kts | 267° |
| 2026-04-23 13:26 | 55.53508 | -39.04588 | 38155 ft | 458 kts | 267° |
| 2026-04-23 13:26 | 55.53133 | -39.15828 | 38169 ft | 459 kts | 267° |
| 2026-04-23 13:27 | 55.52747 | -39.27063 | 38160 ft | 459 kts | 267° |
| 2026-04-23 13:27 | 55.52347 | -39.38293 | 38156 ft | 459 kts | 267° |
| 2026-04-23 13:28 | 55.51940 | -39.49536 | 38167 ft | 459 kts | 267° |
| 2026-04-23 13:28 | 55.51519 | -39.60765 | 38168 ft | 459 kts | 266° |
| 2026-04-23 13:29 | 55.51097 | -39.71993 | 38169 ft | 459 kts | 267° |
| 2026-04-23 13:29 | 55.50671 | -39.83221 | 38176 ft | 459 kts | 267° |
| 2026-04-23 13:30 | 55.50225 | -39.94447 | 38173 ft | 459 kts | 266° |
| 2026-04-23 13:30 | 55.49429 | -40.05615 | 38175 ft | 460 kts | 260° |
| 2026-04-23 13:31 | 55.48245 | -40.16714 | 38172 ft | 461 kts | 260° |
| 2026-04-23 13:31 | 55.47057 | -40.27814 | 38177 ft | 461 kts | 260° |
| 2026-04-23 13:32 | 55.45868 | -40.38903 | 38178 ft | 461 kts | 260° |
| 2026-04-23 13:32 | 55.44667 | -40.49993 | 38178 ft | 461 kts | 260° |
| 2026-04-23 13:33 | 55.43456 | -40.61066 | 38177 ft | 461 kts | 259° |
| 2026-04-23 13:33 | 55.42229 | -40.72137 | 38181 ft | 461 kts | 259° |
| 2026-04-23 13:34 | 55.41012 | -40.83127 | 38178 ft | 461 kts | 259° |
| 2026-04-23 13:34 | 55.39773 | -40.94184 | 38176 ft | 461 kts | 259° |
| 2026-04-23 13:35 | 55.38516 | -41.05313 | 38182 ft | 461 kts | 259° |
| 2026-04-23 13:35 | 55.37265 | -41.16276 | 38167 ft | 461 kts | 259° |
| 2026-04-23 13:36 | 55.35992 | -41.27332 | 38177 ft | 462 kts | 259° |
| 2026-04-23 13:36 | 55.34704 | -41.38394 | 38174 ft | 462 kts | 259° |
| 2026-04-23 13:37 | 55.33412 | -41.49444 | 38181 ft | 462 kts | 259° |
| 2026-04-23 13:37 | 55.32109 | -41.60494 | 38178 ft | 462 kts | 259° |
| 2026-04-23 13:38 | 55.30793 | -41.71525 | 38179 ft | 462 kts | 259° |
| 2026-04-23 13:38 | 55.29472 | -41.82551 | 38176 ft | 461 kts | 259° |
| 2026-04-23 13:39 | 55.28140 | -41.93560 | 38173 ft | 461 kts | 259° |
| 2026-04-23 13:39 | 55.26797 | -42.04566 | 38176 ft | 461 kts | 259° |
| 2026-04-23 13:40 | 55.25445 | -42.15568 | 38174 ft | 461 kts | 258° |
| 2026-04-23 13:40 | 55.24084 | -42.26560 | 38179 ft | 461 kts | 258° |
| 2026-04-23 13:41 | 55.22713 | -42.37538 | 38166 ft | 462 kts | 258° |
| 2026-04-23 13:41 | 55.21331 | -42.48516 | 38173 ft | 462 kts | 258° |
| 2026-04-23 13:42 | 55.19945 | -42.59418 | 38183 ft | 462 kts | 258° |
| 2026-04-23 13:42 | 55.18544 | -42.70390 | 38184 ft | 462 kts | 258° |
| 2026-04-23 13:43 | 55.17131 | -42.81351 | 38181 ft | 462 kts | 258° |
| 2026-04-23 13:43 | 55.15706 | -42.92304 | 38180 ft | 462 kts | 258° |
| 2026-04-23 13:44 | 55.14277 | -43.03247 | 38181 ft | 462 kts | 258° |
| 2026-04-23 13:44 | 55.12834 | -43.14185 | 38181 ft | 462 kts | 258° |
| 2026-04-23 13:45 | 55.11619 | -43.23345 | 38181 ft | 462 kts | 258° |
| 2026-04-23 13:45 | 55.09924 | -43.36037 | 38180 ft | 462 kts | 258° |
| 2026-04-23 13:46 | 55.08454 | -43.46950 | 38161 ft | 462 kts | 258° |
| 2026-04-23 13:46 | 55.06970 | -43.57860 | 38174 ft | 462 kts | 258° |
| 2026-04-23 13:47 | 55.05476 | -43.68767 | 38173 ft | 462 kts | 258° |
| 2026-04-23 13:47 | 55.03977 | -43.79670 | 38174 ft | 462 kts | 258° |
| 2026-04-23 13:48 | 55.02465 | -43.90565 | 38176 ft | 462 kts | 257° |
| 2026-04-23 13:48 | 55.00943 | -44.01451 | 38176 ft | 462 kts | 257° |
| 2026-04-23 13:49 | 54.99415 | -44.12319 | 38174 ft | 462 kts | 257° |
| 2026-04-23 13:49 | 54.97885 | -44.23100 | 38170 ft | 462 kts | 257° |
| 2026-04-23 13:50 | 54.96339 | -44.33945 | 38173 ft | 462 kts | 257° |
| 2026-04-23 13:50 | 54.94779 | -44.44788 | 38169 ft | 462 kts | 257° |
| 2026-04-23 13:51 | 54.93211 | -44.55613 | 38169 ft | 462 kts | 257° |
| 2026-04-23 13:51 | 54.91633 | -44.66445 | 38163 ft | 462 kts | 257° |
| 2026-04-23 13:52 | 54.90042 | -44.77263 | 38168 ft | 462 kts | 257° |
| 2026-04-23 13:52 | 54.88442 | -44.88083 | 38162 ft | 462 kts | 257° |
| 2026-04-23 13:53 | 54.86834 | -44.98889 | 38166 ft | 462 kts | 257° |
| 2026-04-23 13:53 | 54.85218 | -45.09689 | 38156 ft | 462 kts | 257° |
| 2026-04-23 13:54 | 54.83592 | -45.20492 | 38153 ft | 462 kts | 257° |
| 2026-04-23 13:54 | 54.81953 | -45.31266 | 38158 ft | 462 kts | 257° |
| 2026-04-23 13:55 | 54.80309 | -45.42034 | 38142 ft | 462 kts | 257° |
| 2026-04-23 13:55 | 54.78936 | -45.50976 | 38149 ft | 462 kts | 257° |
| 2026-04-23 13:56 | 54.77001 | -45.63471 | 38145 ft | 462 kts | 257° |
| 2026-04-23 13:56 | 54.75325 | -45.74216 | 38135 ft | 462 kts | 257° |
| 2026-04-23 13:57 | 54.73911 | -45.83216 | 38135 ft | 463 kts | 257° |
| 2026-04-23 13:57 | 54.72219 | -45.93958 | 38143 ft | 463 kts | 257° |
| 2026-04-23 13:58 | 54.70519 | -46.04688 | 38141 ft | 463 kts | 257° |
| 2026-04-23 13:58 | 54.68791 | -46.15405 | 38139 ft | 463 kts | 257° |
| 2026-04-23 13:59 | 54.67066 | -46.26121 | 38138 ft | 463 kts | 257° |
| 2026-04-23 13:59 | 54.65349 | -46.36755 | 38133 ft | 463 kts | 257° |
| 2026-04-23 14:00 | 54.63609 | -46.47427 | 38135 ft | 461 kts | 257° |
| 2026-04-23 14:00 | 54.61863 | -46.58083 | 38138 ft | 462 kts | 257° |
| 2026-04-23 14:01 | 54.60118 | -46.68741 | 38141 ft | 462 kts | 257° |
| 2026-04-23 14:01 | 54.58359 | -46.79384 | 38131 ft | 462 kts | 257° |
| 2026-04-23 14:02 | 54.56588 | -46.90022 | 38121 ft | 462 kts | 257° |
| 2026-04-23 14:02 | 54.54802 | -47.00636 | 38116 ft | 460 kts | 257° |
| 2026-04-23 14:03 | 54.53017 | -47.11214 | 38126 ft | 460 kts | 256° |
| 2026-04-23 14:03 | 54.51221 | -47.21780 | 38115 ft | 460 kts | 256° |
| 2026-04-23 14:04 | 54.49416 | -47.32335 | 38115 ft | 460 kts | 256° |
| 2026-04-23 14:04 | 54.47602 | -47.42884 | 38105 ft | 460 kts | 256° |
| 2026-04-23 14:05 | 54.45778 | -47.53425 | 38103 ft | 459 kts | 256° |
| 2026-04-23 14:05 | 54.43957 | -47.63907 | 38097 ft | 458 kts | 256° |
| 2026-04-23 14:06 | 54.42119 | -47.74384 | 38102 ft | 458 kts | 256° |
| 2026-04-23 14:06 | 54.40280 | -47.84842 | 38091 ft | 458 kts | 256° |
| 2026-04-23 14:07 | 54.38429 | -47.95300 | 38084 ft | 458 kts | 256° |
| 2026-04-23 14:07 | 54.35638 | -48.10960 | 38084 ft | 457 kts | 255° |
| 2026-04-23 14:08 | 54.33767 | -48.21364 | 38086 ft | 457 kts | 255° |
| 2026-04-23 14:08 | 54.31887 | -48.31761 | 38088 ft | 457 kts | 255° |
| 2026-04-23 14:09 | 54.29999 | -48.42149 | 38093 ft | 457 kts | 255° |
| 2026-04-23 14:09 | 54.28104 | -48.52522 | 38081 ft | 457 kts | 255° |
| 2026-04-23 14:10 | 54.26210 | -48.62823 | 38083 ft | 457 kts | 255° |
| 2026-04-23 14:10 | 54.24300 | -48.73179 | 38068 ft | 457 kts | 255° |
| 2026-04-23 14:11 | 54.22374 | -48.83531 | 38075 ft | 457 kts | 254° |
| 2026-04-23 14:11 | 54.20440 | -48.93876 | 38079 ft | 457 kts | 254° |
| 2026-04-23 14:12 | 54.18503 | -49.04205 | 38065 ft | 457 kts | 254° |
| 2026-04-23 14:12 | 54.16547 | -49.14528 | 38064 ft | 457 kts | 254° |
| 2026-04-23 14:13 | 54.14592 | -49.24830 | 38065 ft | 455 kts | 253° |
| 2026-04-23 14:13 | 54.12635 | -49.35101 | 38065 ft | 455 kts | 253° |
| 2026-04-23 14:14 | 54.10667 | -49.45358 | 38055 ft | 455 kts | 253° |
| 2026-04-23 14:14 | 54.08688 | -49.55610 | 38054 ft | 456 kts | 253° |
| 2026-04-23 14:15 | 54.06700 | -49.65855 | 38047 ft | 456 kts | 253° |
| 2026-04-23 14:15 | 54.04704 | -49.76083 | 38047 ft | 455 kts | 253° |
| 2026-04-23 14:16 | 54.02701 | -49.86298 | 38033 ft | 455 kts | 253° |
| 2026-04-23 14:16 | 54.00690 | -49.96499 | 38029 ft | 455 kts | 252° |
| 2026-04-23 14:17 | 53.98426 | -50.06545 | 38015 ft | 456 kts | 248° |
| 2026-04-23 14:17 | 53.96013 | -50.16507 | 38028 ft | 456 kts | 248° |
| 2026-04-23 14:18 | 53.93592 | -50.26464 | 38018 ft | 456 kts | 248° |
| 2026-04-23 14:18 | 53.91168 | -50.36400 | 38015 ft | 456 kts | 248° |
| 2026-04-23 14:19 | 53.88733 | -50.46320 | 38015 ft | 456 kts | 248° |
| 2026-04-23 14:19 | 53.86289 | -50.56225 | 38007 ft | 456 kts | 248° |
| 2026-04-23 14:20 | 53.83836 | -50.66122 | 38007 ft | 456 kts | 247° |
| 2026-04-23 14:20 | 53.81380 | -50.76011 | 37994 ft | 456 kts | 247° |
| 2026-04-23 14:21 | 53.78916 | -50.85880 | 37990 ft | 455 kts | 246° |
| 2026-04-23 14:21 | 53.76444 | -50.95732 | 37988 ft | 455 kts | 246° |
| 2026-04-23 14:22 | 53.73983 | -51.05508 | 37984 ft | 455 kts | 246° |
| 2026-04-23 14:22 | 53.71504 | -51.15337 | 37970 ft | 455 kts | 246° |
| 2026-04-23 14:23 | 53.69025 | -51.25165 | 37966 ft | 455 kts | 246° |
| 2026-04-23 14:23 | 53.66524 | -51.34974 | 37966 ft | 455 kts | 245° |
| 2026-04-23 14:24 | 53.64016 | -51.44772 | 37958 ft | 455 kts | 245° |
| 2026-04-23 14:24 | 53.61496 | -51.54552 | 37949 ft | 455 kts | 245° |
| 2026-04-23 14:25 | 53.58971 | -51.64321 | 37948 ft | 455 kts | 245° |
| 2026-04-23 14:25 | 53.56435 | -51.74082 | 37942 ft | 455 kts | 245° |
| 2026-04-23 14:26 | 53.53899 | -51.83830 | 37946 ft | 456 kts | 245° |
| 2026-04-23 14:26 | 53.51346 | -51.93579 | 37923 ft | 456 kts | 244° |
| 2026-04-23 14:27 | 53.48787 | -52.03316 | 37930 ft | 456 kts | 244° |
| 2026-04-23 14:27 | 53.46220 | -52.13042 | 37920 ft | 455 kts | 244° |
| 2026-04-23 14:28 | 53.43639 | -52.22754 | 37918 ft | 456 kts | 244° |
| 2026-04-23 14:28 | 53.41055 | -52.32460 | 37912 ft | 456 kts | 244° |
| 2026-04-23 14:29 | 53.38466 | -52.42151 | 37900 ft | 456 kts | 244° |
| 2026-04-23 14:29 | 53.35859 | -52.51851 | 37897 ft | 457 kts | 244° |
| 2026-04-23 14:30 | 53.33264 | -52.61483 | 37896 ft | 457 kts | 244° |
| 2026-04-23 14:30 | 53.30643 | -52.71159 | 37883 ft | 457 kts | 243° |
| 2026-04-23 14:31 | 53.28008 | -52.80841 | 37896 ft | 458 kts | 243° |
| 2026-04-23 14:31 | 53.25360 | -52.90534 | 37869 ft | 459 kts | 243° |
| 2026-04-23 14:32 | 53.22706 | -53.00215 | 37866 ft | 459 kts | 243° |
| 2026-04-23 14:32 | 53.20038 | -53.09886 | 37855 ft | 459 kts | 243° |
| 2026-04-23 14:33 | 53.17366 | -53.19551 | 37856 ft | 459 kts | 243° |
| 2026-04-23 14:33 | 53.14684 | -53.29210 | 37852 ft | 460 kts | 242° |
| 2026-04-23 14:34 | 53.11982 | -53.38889 | 37848 ft | 461 kts | 242° |
| 2026-04-23 14:34 | 53.09274 | -53.48554 | 37845 ft | 461 kts | 242° |
| 2026-04-23 14:35 | 53.06561 | -53.58214 | 37843 ft | 461 kts | 242° |
| 2026-04-23 14:35 | 53.03835 | -53.67868 | 37832 ft | 461 kts | 242° |
| 2026-04-23 14:36 | 53.01096 | -53.77507 | 37833 ft | 461 kts | 242° |
| 2026-04-23 14:36 | 52.98355 | -53.87142 | 37816 ft | 461 kts | 242° |
| 2026-04-23 14:37 | 52.95605 | -53.96755 | 37820 ft | 461 kts | 241° |
| 2026-04-23 14:37 | 52.92847 | -54.06363 | 37812 ft | 461 kts | 241° |
| 2026-04-23 14:38 | 52.90086 | -54.15951 | 37812 ft | 461 kts | 241° |
| 2026-04-23 14:38 | 52.87310 | -54.25535 | 37803 ft | 462 kts | 241° |
| 2026-04-23 14:39 | 52.84526 | -54.35120 | 37799 ft | 462 kts | 240° |
| 2026-04-23 14:39 | 52.81734 | -54.44685 | 37788 ft | 462 kts | 240° |
| 2026-04-23 14:40 | 52.78935 | -54.54236 | 37788 ft | 462 kts | 240° |
| 2026-04-23 14:40 | 52.76127 | -54.63779 | 37769 ft | 462 kts | 240° |
| 2026-04-23 14:41 | 52.73339 | -54.73213 | 37780 ft | 459 kts | 239° |
| 2026-04-23 14:41 | 52.70536 | -54.82676 | 37767 ft | 459 kts | 239° |
| 2026-04-23 14:42 | 52.67726 | -54.92122 | 37764 ft | 459 kts | 239° |
| 2026-04-23 14:42 | 52.64904 | -55.01548 | 37756 ft | 459 kts | 239° |
| 2026-04-23 14:43 | 52.62076 | -55.10970 | 37758 ft | 459 kts | 239° |
| 2026-04-23 14:43 | 52.59253 | -55.20347 | 37753 ft | 457 kts | 238° |
| 2026-04-23 14:44 | 52.56424 | -55.29696 | 37737 ft | 456 kts | 238° |
| 2026-04-23 14:44 | 52.54073 | -55.37455 | 37735 ft | 456 kts | 238° |
| 2026-04-23 14:45 | 52.51236 | -55.46778 | 37734 ft | 456 kts | 238° |
| 2026-04-23 14:45 | 52.48386 | -55.56089 | 37727 ft | 456 kts | 238° |
| 2026-04-23 14:46 | 52.45550 | -55.65333 | 37731 ft | 452 kts | 238° |
| 2026-04-23 14:46 | 52.42724 | -55.74520 | 37721 ft | 451 kts | 238° |
| 2026-04-23 14:47 | 52.39908 | -55.83705 | 37719 ft | 452 kts | 240° |
| 2026-04-23 14:47 | 52.37484 | -55.93198 | 37720 ft | 452 kts | 243° |
| 2026-04-23 14:48 | 52.35101 | -56.02705 | 37722 ft | 451 kts | 242° |
| 2026-04-23 14:48 | 52.32691 | -56.12195 | 37728 ft | 453 kts | 242° |
| 2026-04-23 14:49 | 52.30268 | -56.21709 | 37719 ft | 453 kts | 242° |
| 2026-04-23 14:49 | 52.27834 | -56.31217 | 37697 ft | 454 kts | 242° |
| 2026-04-23 14:50 | 52.25396 | -56.40711 | 37700 ft | 453 kts | 242° |
| 2026-04-23 14:50 | 52.22955 | -56.50194 | 37692 ft | 453 kts | 242° |
| 2026-04-23 14:51 | 52.20499 | -56.59685 | 37711 ft | 456 kts | 242° |
| 2026-04-23 14:51 | 52.18013 | -56.69232 | 37682 ft | 459 kts | 242° |
| 2026-04-23 14:52 | 52.15515 | -56.78796 | 37673 ft | 459 kts | 241° |
| 2026-04-23 14:52 | 52.13009 | -56.88351 | 37681 ft | 459 kts | 241° |
| 2026-04-23 14:53 | 52.10519 | -56.97838 | 37681 ft | 459 kts | 241° |
| 2026-04-23 14:53 | 52.07987 | -57.07434 | 37691 ft | 459 kts | 241° |
| 2026-04-23 14:54 | 52.05465 | -57.16972 | 37674 ft | 459 kts | 241° |
| 2026-04-23 14:54 | 52.02936 | -57.26491 | 37665 ft | 459 kts | 241° |
| 2026-04-23 14:55 | 52.00390 | -57.36000 | 37660 ft | 459 kts | 241° |
| 2026-04-23 14:55 | 51.97857 | -57.45431 | 37656 ft | 459 kts | 241° |
| 2026-04-23 14:56 | 51.95298 | -57.54914 | 37691 ft | 459 kts | 241° |
| 2026-04-23 14:56 | 51.92731 | -57.64382 | 37664 ft | 459 kts | 240° |
| 2026-04-23 14:57 | 51.90158 | -57.73838 | 37670 ft | 459 kts | 240° |
| 2026-04-23 14:57 | 51.87576 | -57.83285 | 37670 ft | 459 kts | 240° |
| 2026-04-23 14:58 | 51.84990 | -57.92714 | 37669 ft | 459 kts | 240° |
| 2026-04-23 14:58 | 51.82394 | -58.02138 | 37700 ft | 459 kts | 240° |
| 2026-04-23 14:59 | 51.79791 | -58.11546 | 37676 ft | 459 kts | 240° |
| 2026-04-23 14:59 | 51.77180 | -58.20958 | 37670 ft | 459 kts | 240° |
| 2026-04-23 15:00 | 51.74558 | -58.30356 | 37673 ft | 459 kts | 240° |
| 2026-04-23 15:00 | 51.71929 | -58.39746 | 37679 ft | 459 kts | 240° |
| 2026-04-23 15:01 | 51.69297 | -58.49122 | 37682 ft | 459 kts | 240° |
| 2026-04-23 15:01 | 51.66655 | -58.58476 | 37690 ft | 458 kts | 240° |
| 2026-04-23 15:02 | 51.64009 | -58.67813 | 37689 ft | 458 kts | 240° |
| 2026-04-23 15:02 | 51.61375 | -58.77081 | 37689 ft | 458 kts | 240° |
| 2026-04-23 15:03 | 51.58717 | -58.86399 | 37690 ft | 458 kts | 240° |
| 2026-04-23 15:03 | 51.56051 | -58.95701 | 37740 ft | 458 kts | 240° |
| 2026-04-23 15:04 | 51.53372 | -59.04999 | 37709 ft | 459 kts | 240° |
| 2026-04-23 15:04 | 51.50684 | -59.14304 | 37716 ft | 459 kts | 240° |
| 2026-04-23 15:05 | 51.47977 | -59.23596 | 37716 ft | 459 kts | 239° |
| 2026-04-23 15:05 | 51.45270 | -59.32864 | 37716 ft | 459 kts | 239° |
| 2026-04-23 15:06 | 51.42566 | -59.42145 | 37721 ft | 459 kts | 239° |
| 2026-04-23 15:06 | 51.39850 | -59.51415 | 37738 ft | 460 kts | 239° |
| 2026-04-23 15:07 | 51.37122 | -59.60680 | 37736 ft | 460 kts | 239° |
| 2026-04-23 15:07 | 51.34376 | -59.69929 | 37737 ft | 460 kts | 239° |
| 2026-04-23 15:08 | 51.31635 | -59.79177 | 37742 ft | 460 kts | 239° |
| 2026-04-23 15:09 | 51.27512 | -59.93028 | 37775 ft | 461 kts | 239° |
| 2026-04-23 15:09 | 51.24743 | -60.02275 | 37755 ft | 462 kts | 239° |
| 2026-04-23 15:10 | 51.22432 | -60.09952 | 37750 ft | 462 kts | 239° |
| 2026-04-23 15:10 | 51.19176 | -60.20745 | 37750 ft | 462 kts | 239° |
| 2026-04-23 15:11 | 51.16370 | -60.29954 | 37751 ft | 462 kts | 239° |
| 2026-04-23 15:11 | 51.13559 | -60.39167 | 37771 ft | 463 kts | 239° |
| 2026-04-23 15:12 | 51.10761 | -60.48338 | 37757 ft | 464 kts | 239° |
| 2026-04-23 15:12 | 51.07942 | -60.57554 | 37761 ft | 463 kts | 239° |
| 2026-04-23 15:13 | 51.05113 | -60.66762 | 37754 ft | 463 kts | 239° |
| 2026-04-23 15:13 | 51.02277 | -60.75952 | 37757 ft | 463 kts | 239° |
| 2026-04-23 15:14 | 50.99432 | -60.85121 | 37783 ft | 463 kts | 239° |
| 2026-04-23 15:14 | 50.96578 | -60.94278 | 37763 ft | 463 kts | 239° |
| 2026-04-23 15:15 | 50.93714 | -61.03435 | 37774 ft | 463 kts | 239° |
| 2026-04-23 15:15 | 50.90843 | -61.12589 | 37772 ft | 464 kts | 238° |
| 2026-04-23 15:16 | 50.87959 | -61.21720 | 37785 ft | 464 kts | 238° |
| 2026-04-23 15:16 | 50.85075 | -61.30844 | 37805 ft | 463 kts | 238° |
| 2026-04-23 15:17 | 50.82187 | -61.39942 | 37801 ft | 463 kts | 238° |
| 2026-04-23 15:17 | 50.79289 | -61.49024 | 37797 ft | 463 kts | 238° |
| 2026-04-23 15:18 | 50.76391 | -61.58094 | 37809 ft | 463 kts | 238° |
| 2026-04-23 15:18 | 50.73485 | -61.67164 | 37810 ft | 463 kts | 238° |
| 2026-04-23 15:19 | 50.70576 | -61.76209 | 37828 ft | 462 kts | 238° |
| 2026-04-23 15:19 | 50.67661 | -61.85230 | 37817 ft | 461 kts | 238° |
| 2026-04-23 15:20 | 50.65239 | -61.92717 | 37824 ft | 461 kts | 238° |
| 2026-04-23 15:20 | 50.61821 | -62.03222 | 37821 ft | 461 kts | 238° |
| 2026-04-23 15:21 | 50.58893 | -62.12207 | 37827 ft | 461 kts | 238° |
| 2026-04-23 15:21 | 50.55960 | -62.21174 | 37839 ft | 461 kts | 238° |
| 2026-04-23 15:22 | 50.53016 | -62.30119 | 37839 ft | 460 kts | 238° |
| 2026-04-23 15:22 | 50.50092 | -62.38993 | 37836 ft | 460 kts | 238° |
| 2026-04-23 15:23 | 50.47141 | -62.47913 | 37844 ft | 460 kts | 238° |
| 2026-04-23 15:23 | 50.44181 | -62.56823 | 37843 ft | 460 kts | 237° |
| 2026-04-23 15:24 | 50.41208 | -62.65722 | 37856 ft | 460 kts | 238° |
| 2026-04-23 15:24 | 50.38239 | -62.74600 | 37843 ft | 460 kts | 238° |
| 2026-04-23 15:25 | 50.35258 | -62.83463 | 37848 ft | 460 kts | 237° |
| 2026-04-23 15:25 | 50.32761 | -62.90880 | 37848 ft | 460 kts | 238° |
| 2026-04-23 15:26 | 50.29287 | -63.01155 | 37855 ft | 459 kts | 237° |
| 2026-04-23 15:26 | 50.26293 | -63.09976 | 37861 ft | 459 kts | 237° |
| 2026-04-23 15:27 | 50.23291 | -63.18784 | 37873 ft | 459 kts | 237° |
| 2026-04-23 15:27 | 50.20289 | -63.27575 | 37868 ft | 459 kts | 237° |
| 2026-04-23 15:28 | 50.17273 | -63.36353 | 37865 ft | 459 kts | 237° |
| 2026-04-23 15:28 | 50.14252 | -63.45128 | 37885 ft | 459 kts | 238° |
| 2026-04-23 15:29 | 50.11229 | -63.53878 | 37872 ft | 458 kts | 237° |
| 2026-04-23 15:29 | 50.08200 | -63.62609 | 37870 ft | 458 kts | 238° |
| 2026-04-23 15:30 | 50.05167 | -63.71332 | 37875 ft | 458 kts | 237° |
| 2026-04-23 15:30 | 50.02132 | -63.80039 | 37896 ft | 458 kts | 237° |
| 2026-04-23 15:31 | 49.99087 | -63.88738 | 37911 ft | 458 kts | 238° |
| 2026-04-23 15:31 | 49.96035 | -63.97417 | 37898 ft | 457 kts | 238° |
| 2026-04-23 15:32 | 49.92982 | -64.06074 | 37903 ft | 457 kts | 238° |
| 2026-04-23 15:32 | 49.90437 | -64.13270 | 37910 ft | 457 kts | 238° |
| 2026-04-23 15:33 | 49.86877 | -64.23311 | 37907 ft | 457 kts | 238° |
| 2026-04-23 15:33 | 49.84305 | -64.30533 | 37931 ft | 457 kts | 238° |
| 2026-04-23 15:34 | 49.81224 | -64.39129 | 37918 ft | 456 kts | 238° |
| 2026-04-23 15:34 | 49.78147 | -64.47723 | 37925 ft | 456 kts | 238° |
| 2026-04-23 15:35 | 49.75068 | -64.56304 | 37924 ft | 456 kts | 238° |
| 2026-04-23 15:35 | 49.71977 | -64.64868 | 37926 ft | 456 kts | 238° |
| 2026-04-23 15:36 | 49.68881 | -64.73428 | 37937 ft | 456 kts | 238° |
| 2026-04-23 15:36 | 49.65785 | -64.81952 | 37934 ft | 455 kts | 238° |
| 2026-04-23 15:37 | 49.62706 | -64.90409 | 37934 ft | 455 kts | 238° |
| 2026-04-23 15:37 | 49.59600 | -64.98905 | 37941 ft | 455 kts | 238° |
| 2026-04-23 15:38 | 49.56489 | -65.07391 | 37940 ft | 455 kts | 238° |
| 2026-04-23 15:38 | 49.53366 | -65.15850 | 37949 ft | 453 kts | 239° |
| 2026-04-23 15:39 | 49.50255 | -65.24283 | 37940 ft | 453 kts | 239° |
| 2026-04-23 15:39 | 49.47141 | -65.32712 | 37950 ft | 453 kts | 239° |
| 2026-04-23 15:40 | 49.44020 | -65.41119 | 37953 ft | 453 kts | 238° |
| 2026-04-23 15:40 | 49.40888 | -65.49513 | 37950 ft | 453 kts | 238° |
| 2026-04-23 15:41 | 49.37753 | -65.57900 | 37953 ft | 452 kts | 239° |
| 2026-04-23 15:41 | 49.34621 | -65.66255 | 37953 ft | 452 kts | 239° |
| 2026-04-23 15:42 | 49.31479 | -65.74602 | 37951 ft | 452 kts | 239° |
| 2026-04-23 15:42 | 49.28327 | -65.82943 | 37953 ft | 452 kts | 239° |
| 2026-04-23 15:43 | 49.25171 | -65.91275 | 37958 ft | 452 kts | 239° |
| 2026-04-23 15:43 | 49.22006 | -65.99607 | 37958 ft | 453 kts | 239° |
| 2026-04-23 15:44 | 49.18833 | -66.07940 | 37952 ft | 453 kts | 239° |
| 2026-04-23 15:44 | 49.15651 | -66.16262 | 37952 ft | 453 kts | 239° |
| 2026-04-23 15:45 | 49.12486 | -66.24516 | 37956 ft | 453 kts | 239° |
| 2026-04-23 15:45 | 49.09289 | -66.32818 | 37959 ft | 454 kts | 239° |
| 2026-04-23 15:46 | 49.06080 | -66.41136 | 37952 ft | 455 kts | 239° |
| 2026-04-23 15:46 | 49.02862 | -66.49439 | 37957 ft | 453 kts | 240° |
| 2026-04-23 15:47 | 48.99661 | -66.57684 | 37955 ft | 452 kts | 239° |
| 2026-04-23 15:47 | 48.96457 | -66.65914 | 37958 ft | 452 kts | 239° |
| 2026-04-23 15:48 | 48.93244 | -66.74131 | 37957 ft | 452 kts | 240° |
| 2026-04-23 15:48 | 48.90019 | -66.82360 | 37960 ft | 453 kts | 240° |
| 2026-04-23 15:49 | 48.86785 | -66.90578 | 37956 ft | 453 kts | 240° |
| 2026-04-23 15:49 | 48.83549 | -66.98788 | 37955 ft | 453 kts | 239° |
| 2026-04-23 15:50 | 48.80300 | -67.06991 | 37959 ft | 453 kts | 240° |
| 2026-04-23 15:50 | 48.77055 | -67.15178 | 37960 ft | 452 kts | 240° |
| 2026-04-23 15:51 | 48.73801 | -67.23352 | 37956 ft | 453 kts | 239° |
| 2026-04-23 15:51 | 48.70535 | -67.31525 | 37953 ft | 453 kts | 239° |
| 2026-04-23 15:52 | 48.67266 | -67.39690 | 37956 ft | 453 kts | 239° |
| 2026-04-23 15:52 | 48.63990 | -67.47837 | 37953 ft | 453 kts | 239° |
| 2026-04-23 15:53 | 48.60717 | -67.55954 | 37951 ft | 451 kts | 240° |
| 2026-04-23 15:53 | 48.57477 | -67.63971 | 37949 ft | 450 kts | 240° |
| 2026-04-23 15:54 | 48.54208 | -67.72035 | 37954 ft | 450 kts | 240° |
| 2026-04-23 15:54 | 48.50936 | -67.80088 | 37948 ft | 450 kts | 239° |
| 2026-04-23 15:55 | 48.47653 | -67.88125 | 37941 ft | 449 kts | 240° |
| 2026-04-23 15:55 | 48.44383 | -67.96116 | 37952 ft | 448 kts | 240° |
| 2026-04-23 15:56 | 48.41111 | -68.04099 | 37950 ft | 448 kts | 240° |
| 2026-04-23 15:56 | 48.37833 | -68.12063 | 37951 ft | 448 kts | 240° |
| 2026-04-23 15:57 | 48.34544 | -68.20031 | 37964 ft | 448 kts | 240° |
| 2026-04-23 15:57 | 48.31250 | -68.27986 | 37961 ft | 448 kts | 240° |
| 2026-04-23 15:58 | 48.27955 | -68.35924 | 37960 ft | 448 kts | 240° |
| 2026-04-23 15:58 | 48.24653 | -68.43846 | 37959 ft | 448 kts | 240° |
| 2026-04-23 15:59 | 48.21345 | -68.51766 | 37970 ft | 448 kts | 240° |
| 2026-04-23 15:59 | 48.18033 | -68.59675 | 37957 ft | 448 kts | 240° |
| 2026-04-23 16:00 | 48.14717 | -68.67565 | 37968 ft | 447 kts | 240° |
| 2026-04-23 16:00 | 48.11401 | -68.75434 | 37983 ft | 447 kts | 240° |
| 2026-04-23 16:01 | 48.08100 | -68.83244 | 37982 ft | 447 kts | 240° |
| 2026-04-23 16:01 | 48.04772 | -68.91091 | 37984 ft | 447 kts | 240° |
| 2026-04-23 16:02 | 48.01416 | -68.98987 | 37978 ft | 447 kts | 240° |
| 2026-04-23 16:02 | 47.98107 | -69.06758 | 37987 ft | 446 kts | 240° |
| 2026-04-23 16:03 | 47.94768 | -69.14559 | 37987 ft | 446 kts | 240° |
| 2026-04-23 16:03 | 47.91424 | -69.22358 | 37987 ft | 446 kts | 240° |
| 2026-04-23 16:04 | 47.88073 | -69.30145 | 37987 ft | 447 kts | 240° |
| 2026-04-23 16:04 | 47.84712 | -69.37931 | 37991 ft | 447 kts | 241° |
| 2026-04-23 16:05 | 47.81892 | -69.44446 | 37993 ft | 447 kts | 241° |
| 2026-04-23 16:05 | 47.77983 | -69.53474 | 37989 ft | 447 kts | 241° |
| 2026-04-23 16:06 | 47.74442 | -69.61080 | 37992 ft | 450 kts | 234° |
| 2026-04-23 16:06 | 47.70480 | -69.68268 | 37992 ft | 450 kts | 234° |
| 2026-04-23 16:07 | 47.66507 | -69.75440 | 37988 ft | 449 kts | 234° |
| 2026-04-23 16:07 | 47.62536 | -69.82601 | 37987 ft | 449 kts | 234° |
| 2026-04-23 16:08 | 47.58566 | -69.89753 | 37985 ft | 449 kts | 234° |
| 2026-04-23 16:08 | 47.54586 | -69.96892 | 37994 ft | 449 kts | 234° |
| 2026-04-23 16:09 | 47.50610 | -70.04018 | 37985 ft | 449 kts | 235° |
| 2026-04-23 16:09 | 47.46625 | -70.11135 | 37984 ft | 449 kts | 235° |
| 2026-04-23 16:10 | 47.42631 | -70.18236 | 37980 ft | 449 kts | 235° |
| 2026-04-23 16:10 | 47.38630 | -70.25309 | 37980 ft | 449 kts | 235° |
| 2026-04-23 16:11 | 47.34617 | -70.32377 | 37977 ft | 449 kts | 235° |
| 2026-04-23 16:11 | 47.30652 | -70.39348 | 37982 ft | 444 kts | 235° |
| 2026-04-23 16:12 | 47.26681 | -70.46320 | 37977 ft | 444 kts | 235° |
| 2026-04-23 16:12 | 47.22705 | -70.53279 | 37980 ft | 444 kts | 235° |
| 2026-04-23 16:13 | 47.18714 | -70.60232 | 37977 ft | 444 kts | 235° |
| 2026-04-23 16:13 | 47.12734 | -70.70634 | 37991 ft | 444 kts | 235° |
| 2026-04-23 16:14 | 47.08742 | -70.77560 | 37986 ft | 444 kts | 235° |
| 2026-04-23 16:14 | 47.04744 | -70.84476 | 37994 ft | 445 kts | 235° |
| 2026-04-23 16:15 | 47.00725 | -70.91374 | 37998 ft | 444 kts | 235° |
| 2026-04-23 16:15 | 46.96712 | -70.98246 | 37999 ft | 444 kts | 235° |
| 2026-04-23 16:16 | 46.92691 | -71.05116 | 37999 ft | 444 kts | 235° |
| 2026-04-23 16:16 | 46.88664 | -71.11974 | 38005 ft | 444 kts | 235° |
| 2026-04-23 16:17 | 46.84637 | -71.18825 | 37997 ft | 444 kts | 236° |
| 2026-04-23 16:17 | 46.80611 | -71.25652 | 38025 ft | 444 kts | 235° |
| 2026-04-23 16:18 | 46.75941 | -71.31646 | 37995 ft | 448 kts | 221° |
| 2026-04-23 16:18 | 46.73392 | -71.34267 | 37171 ft | 451 kts | 221° |
| 2026-04-23 16:18 | 46.70793 | -71.36909 | 36097 ft | 460 kts | 221° |
| 2026-04-23 16:19 | 46.68166 | -71.39591 | 35359 ft | 462 kts | 222° |
| 2026-04-23 16:19 | 46.65554 | -71.42290 | 34812 ft | 458 kts | 225° |
| 2026-04-23 16:19 | 46.63148 | -71.45241 | 34265 ft | 447 kts | 232° |
| 2026-04-23 16:19 | 46.60967 | -71.48423 | 33688 ft | 443 kts | 235° |
| 2026-04-23 16:20 | 46.58822 | -71.51617 | 33045 ft | 439 kts | 236° |
| 2026-04-23 16:20 | 46.56686 | -71.54767 | 32520 ft | 435 kts | 236° |
| 2026-04-23 16:20 | 46.54561 | -71.57866 | 31990 ft | 432 kts | 236° |
| 2026-04-23 16:20 | 46.52440 | -71.60941 | 31439 ft | 429 kts | 237° |
| 2026-04-23 16:21 | 46.50356 | -71.63947 | 30876 ft | 426 kts | 238° |
| 2026-04-23 16:21 | 46.48264 | -71.66963 | 30383 ft | 423 kts | 239° |
| 2026-04-23 16:21 | 46.46184 | -71.69956 | 29827 ft | 419 kts | 239° |
| 2026-04-23 16:21 | 46.44793 | -71.71962 | 29414 ft | 417 kts | 239° |
| 2026-04-23 16:22 | 46.42085 | -71.75864 | 28659 ft | 412 kts | 239° |
| 2026-04-23 16:22 | 46.40067 | -71.78761 | 28182 ft | 405 kts | 239° |
| 2026-04-23 16:22 | 46.38059 | -71.81583 | 27828 ft | 399 kts | 238° |
| 2026-04-23 16:22 | 46.36071 | -71.84337 | 27276 ft | 394 kts | 238° |
| 2026-04-23 16:23 | 46.34734 | -71.86184 | 26891 ft | 391 kts | 238° |
| 2026-04-23 16:23 | 46.32771 | -71.88896 | 26334 ft | 389 kts | 239° |
| 2026-04-23 16:23 | 46.30821 | -71.91593 | 25841 ft | 387 kts | 239° |
| 2026-04-23 16:23 | 46.28879 | -71.94267 | 25366 ft | 384 kts | 239° |
| 2026-04-23 16:24 | 46.26948 | -71.96922 | 24904 ft | 382 kts | 238° |
| 2026-04-23 16:24 | 46.25034 | -71.99552 | 24452 ft | 379 kts | 238° |
| 2026-04-23 16:24 | 46.23153 | -72.02135 | 24014 ft | 376 kts | 238° |
| 2026-04-23 16:24 | 46.21236 | -72.04766 | 23564 ft | 374 kts | 238° |
| 2026-04-23 16:25 | 46.19384 | -72.07306 | 23052 ft | 371 kts | 237° |
| 2026-04-23 16:25 | 46.17522 | -72.09854 | 22567 ft | 367 kts | 237° |
| 2026-04-23 16:25 | 46.15676 | -72.12371 | 22110 ft | 362 kts | 238° |
| 2026-04-23 16:25 | 46.13856 | -72.14855 | 21699 ft | 358 kts | 238° |
| 2026-04-23 16:26 | 46.12064 | -72.17303 | 21297 ft | 353 kts | 237° |
| 2026-04-23 16:26 | 46.10289 | -72.19721 | 20897 ft | 349 kts | 237° |
| 2026-04-23 16:26 | 46.08538 | -72.22105 | 20511 ft | 344 kts | 236° |
| 2026-04-23 16:26 | 46.06808 | -72.24463 | 20114 ft | 341 kts | 236° |
| 2026-04-23 16:27 | 46.05095 | -72.26795 | 19735 ft | 337 kts | 235° |
| 2026-04-23 16:27 | 46.03400 | -72.29100 | 19350 ft | 334 kts | 234° |
| 2026-04-23 16:27 | 46.01716 | -72.31383 | 18959 ft | 331 kts | 235° |
| 2026-04-23 16:27 | 46.00051 | -72.33642 | 18567 ft | 328 kts | 236° |
| 2026-04-23 16:28 | 45.98401 | -72.35874 | 18192 ft | 324 kts | 236° |
| 2026-04-23 16:28 | 45.96769 | -72.38085 | 17765 ft | 321 kts | 235° |
| 2026-04-23 16:28 | 45.95194 | -72.40316 | 17355 ft | 311 kts | 241° |
| 2026-04-23 16:28 | 45.94040 | -72.42820 | 16975 ft | 295 kts | 253° |
| 2026-04-23 16:29 | 45.93090 | -72.45415 | 16605 ft | 293 kts | 254° |
| 2026-04-23 16:29 | 45.92151 | -72.48012 | 16239 ft | 293 kts | 253° |
| 2026-04-23 16:29 | 45.91204 | -72.50602 | 15867 ft | 293 kts | 253° |
| 2026-04-23 16:29 | 45.90248 | -72.53198 | 15504 ft | 294 kts | 252° |
| 2026-04-23 16:30 | 45.89286 | -72.55796 | 15151 ft | 295 kts | 251° |
| 2026-04-23 16:30 | 45.88316 | -72.58403 | 14783 ft | 296 kts | 251° |
| 2026-04-23 16:30 | 45.87341 | -72.61015 | 14416 ft | 298 kts | 250° |
| 2026-04-23 16:30 | 45.86360 | -72.63643 | 14046 ft | 299 kts | 250° |
| 2026-04-23 16:31 | 45.85374 | -72.66281 | 13644 ft | 301 kts | 250° |
| 2026-04-23 16:31 | 45.84384 | -72.68923 | 13227 ft | 301 kts | 250° |
| 2026-04-23 16:31 | 45.83403 | -72.71525 | 12886 ft | 292 kts | 250° |
| 2026-04-23 16:31 | 45.82446 | -72.74075 | 12589 ft | 289 kts | 250° |
| 2026-04-23 16:32 | 45.81496 | -72.76608 | 12316 ft | 288 kts | 250° |
| 2026-04-23 16:32 | 45.80547 | -72.79136 | 12073 ft | 287 kts | 250° |
| 2026-04-23 16:32 | 45.79599 | -72.81657 | 11991 ft | 287 kts | 250° |
| 2026-04-23 16:32 | 45.78651 | -72.84178 | 12003 ft | 288 kts | 250° |
| 2026-04-23 16:33 | 45.77700 | -72.86703 | 12012 ft | 288 kts | 250° |
| 2026-04-23 16:33 | 45.76748 | -72.89221 | 12005 ft | 288 kts | 250° |
| 2026-04-23 16:33 | 45.75795 | -72.91744 | 12018 ft | 288 kts | 250° |
| 2026-04-23 16:33 | 45.74844 | -72.94260 | 12025 ft | 288 kts | 250° |
| 2026-04-23 16:34 | 45.73890 | -72.96777 | 12028 ft | 287 kts | 250° |
| 2026-04-23 16:34 | 45.72937 | -72.99291 | 12027 ft | 287 kts | 250° |
| 2026-04-23 16:34 | 45.72046 | -73.01839 | 12025 ft | 282 kts | 258° |
| 2026-04-23 16:34 | 45.71612 | -73.04501 | 12028 ft | 273 kts | 269° |
| 2026-04-23 16:35 | 45.71342 | -73.07185 | 12032 ft | 272 kts | 270° |
| 2026-04-23 16:35 | 45.71081 | -73.09832 | 12034 ft | 272 kts | 270° |
| 2026-04-23 16:35 | 45.70684 | -73.12499 | 12010 ft | 280 kts | 259° |
| 2026-04-23 16:35 | 45.69746 | -73.15037 | 12016 ft | 289 kts | 247° |
| 2026-04-23 16:36 | 45.68688 | -73.17398 | 11864 ft | 281 kts | 246° |
| 2026-04-23 16:36 | 45.67645 | -73.19708 | 11552 ft | 272 kts | 247° |
| 2026-04-23 16:36 | 45.66639 | -73.21957 | 11240 ft | 265 kts | 247° |
| 2026-04-23 16:36 | 45.65653 | -73.24182 | 10961 ft | 265 kts | 247° |
| 2026-04-23 16:37 | 45.64667 | -73.26412 | 10700 ft | 265 kts | 247° |
| 2026-04-23 16:37 | 45.63684 | -73.28636 | 10447 ft | 265 kts | 247° |
| 2026-04-23 16:37 | 45.62701 | -73.30862 | 10194 ft | 264 kts | 247° |
| 2026-04-23 16:37 | 45.61719 | -73.33085 | 9947 ft | 264 kts | 247° |
| 2026-04-23 16:38 | 45.60742 | -73.35297 | 9702 ft | 263 kts | 246° |
| 2026-04-23 16:38 | 45.59765 | -73.37503 | 9485 ft | 262 kts | 246° |
| 2026-04-23 16:38 | 45.58794 | -73.39695 | 9233 ft | 261 kts | 246° |
| 2026-04-23 16:38 | 45.57812 | -73.41882 | 9028 ft | 268 kts | 244° |
| 2026-04-23 16:39 | 45.56501 | -73.43964 | 8957 ft | 290 kts | 231° |
| 2026-04-23 16:39 | 45.55013 | -73.45911 | 8975 ft | 291 kts | 230° |
| 2026-04-23 16:39 | 45.53518 | -73.47852 | 8985 ft | 291 kts | 230° |
| 2026-04-23 16:39 | 45.52022 | -73.49806 | 8990 ft | 291 kts | 230° |
| 2026-04-23 16:40 | 45.50538 | -73.51750 | 8991 ft | 291 kts | 230° |
| 2026-04-23 16:40 | 45.49048 | -73.53705 | 8993 ft | 291 kts | 230° |
| 2026-04-23 16:40 | 45.47563 | -73.55656 | 8993 ft | 290 kts | 230° |
| 2026-04-23 16:40 | 45.46090 | -73.57593 | 8497 ft | 289 kts | 230° |
| 2026-04-23 16:41 | 45.44609 | -73.59543 | 7898 ft | 290 kts | 230° |
| 2026-04-23 16:41 | 45.43134 | -73.61478 | 7443 ft | 286 kts | 229° |
| 2026-04-23 16:41 | 45.41673 | -73.63396 | 6929 ft | 285 kts | 229° |
| 2026-04-23 16:41 | 45.40222 | -73.65302 | 6454 ft | 282 kts | 229° |
| 2026-04-23 16:42 | 45.38790 | -73.67180 | 5998 ft | 278 kts | 228° |
| 2026-04-23 16:42 | 45.37386 | -73.69017 | 5678 ft | 272 kts | 227° |
| 2026-04-23 16:42 | 45.36010 | -73.70819 | 5431 ft | 266 kts | 227° |
| 2026-04-23 16:42 | 45.34666 | -73.72580 | 5197 ft | 260 kts | 227° |
| 2026-04-23 16:43 | 45.33350 | -73.74300 | 4986 ft | 253 kts | 226° |
| 2026-04-23 16:43 | 45.32071 | -73.75969 | 4778 ft | 245 kts | 226° |
| 2026-04-23 16:43 | 45.30848 | -73.77565 | 4624 ft | 233 kts | 226° |
| 2026-04-23 16:43 | 45.29686 | -73.79082 | 4482 ft | 222 kts | 226° |
| 2026-04-23 16:44 | 45.28567 | -73.80544 | 4277 ft | 217 kts | 226° |
| 2026-04-23 16:44 | 45.27450 | -73.82004 | 4098 ft | 218 kts | 226° |
| 2026-04-23 16:44 | 45.26336 | -73.83459 | 3936 ft | 217 kts | 226° |
| 2026-04-23 16:44 | 45.25330 | -73.85026 | 3755 ft | 212 kts | 244° |
| 2026-04-23 16:45 | 45.25004 | -73.86991 | 3588 ft | 205 kts | 277° |
| 2026-04-23 16:45 | 45.25508 | -73.88836 | 3437 ft | 203 kts | 307° |
| 2026-04-23 16:45 | 45.26462 | -73.90294 | 3307 ft | 202 kts | 315° |
| 2026-04-23 16:45 | 45.27443 | -73.91712 | 3188 ft | 201 kts | 313° |
| 2026-04-23 16:46 | 45.28406 | -73.93157 | 3047 ft | 202 kts | 313° |
| 2026-04-23 16:46 | 45.29419 | -73.94527 | 2973 ft | 201 kts | 324° |
| 2026-04-23 16:46 | 45.30882 | -73.95247 | 2965 ft | 234 kts | 354° |
| 2026-04-23 16:46 | 45.32393 | -73.94697 | 2981 ft | 222 kts | 27° |
| 2026-04-23 16:47 | 45.33544 | -73.93351 | 2984 ft | 208 kts | 41° |
| 2026-04-23 16:47 | 45.34487 | -73.91924 | 2980 ft | 194 kts | 43° |
| 2026-04-23 16:47 | 45.35373 | -73.90603 | 2957 ft | 178 kts | 40° |
| 2026-04-23 16:47 | 45.36243 | -73.89406 | 2841 ft | 166 kts | 38° |
| 2026-04-23 16:48 | 45.37030 | -73.88368 | 2661 ft | 144 kts | 37° |
| 2026-04-23 16:48 | 45.37741 | -73.87439 | 2445 ft | 136 kts | 37° |
| 2026-04-23 16:48 | 45.38427 | -73.86543 | 2264 ft | 131 kts | 36° |
| 2026-04-23 16:48 | 45.39096 | -73.85671 | 2080 ft | 131 kts | 36° |
| 2026-04-23 16:49 | 45.39550 | -73.85076 | 1959 ft | 131 kts | 36° |
| 2026-04-23 16:49 | 45.40438 | -73.83918 | 1707 ft | 133 kts | 37° |
| 2026-04-23 16:49 | 45.41116 | -73.83030 | 1517 ft | 132 kts | 37° |
| 2026-04-23 16:49 | 45.41791 | -73.82148 | 1338 ft | 132 kts | 38° |
| 2026-04-23 16:50 | 45.42466 | -73.81267 | 1148 ft | 132 kts | 38° |
| 2026-04-23 16:50 | 45.43135 | -73.80388 | 973 ft | 129 kts | 38° |
| 2026-04-23 16:50 | 45.43803 | -73.79525 | 798 ft | 131 kts | 37° |
| 2026-04-23 16:50 | 45.44470 | -73.78664 | 633 ft | 130 kts | 39° |
| 2026-04-23 16:51 | 45.45132 | -73.77776 | 431 ft | 131 kts | 39° |
| 2026-04-23 16:51 | 45.45810 | -73.76896 | 250 ft | 134 kts | 38° |
| 2026-04-23 16:51 | 45.46494 | -73.75992 | 118 ft | 132 kts | 38° |
| 2026-04-23 16:51 | 45.47100 | -73.75210 | 115 ft | 93 kts | 43° |
| 2026-04-23 16:52 | 45.47427 | -73.74776 | 116 ft | 42 kts | 44° |
| 2026-04-23 16:52 | 45.47631 | -73.74510 | 113 ft | 30 kts | 42° |
| 2026-04-23 16:52 | 45.47733 | -73.74340 | 116 ft | 19 kts | 70° |
| 2026-04-23 16:52 | 45.47775 | -73.74146 | 117 ft | 22 kts | 73° |
| 2026-04-23 16:53 | 45.47795 | -73.74049 | 116 ft | 8 kts | 81° |
| 2026-04-23 16:53 | 45.47765 | -73.73974 | 117 ft | 12 kts | 176° |
| 2026-04-23 16:53 | 45.47695 | -73.74036 | 117 ft | 13 kts | 224° |
| 2026-04-23 16:53 | 45.47618 | -73.74137 | 115 ft | 17 kts | 223° |
| 2026-04-23 16:54 | 45.47528 | -73.74255 | 118 ft | 14 kts | 223° |
| 2026-04-23 16:54 | 45.47451 | -73.74355 | 117 ft | 17 kts | 223° |
| 2026-04-23 16:54 | 45.47364 | -73.74469 | 118 ft | 17 kts | 223° |
| 2026-04-23 16:54 | 45.47274 | -73.74588 | 119 ft | 18 kts | 223° |
| 2026-04-23 16:55 | 45.47177 | -73.74715 | 119 ft | 20 kts | 223° |
| 2026-04-23 16:55 | 45.47070 | -73.74854 | 115 ft | 20 kts | 223° |
| 2026-04-23 16:55 | 45.46972 | -73.74983 | 116 ft | 20 kts | 223° |
| 2026-04-23 16:55 | 45.46868 | -73.75120 | 113 ft | 20 kts | 222° |
| 2026-04-23 16:56 | 45.46772 | -73.75243 | 112 ft | 19 kts | 222° |
| 2026-04-23 16:56 | 45.46668 | -73.75379 | 111 ft | 22 kts | 223° |
| 2026-04-23 16:56 | 45.46556 | -73.75527 | 110 ft | 22 kts | 223° |
| 2026-04-23 16:56 | 45.46472 | -73.75637 | 110 ft | 10 kts | 223° |
| 2026-04-23 16:57 | 45.46405 | -73.75698 | 109 ft | 13 kts | 193° |
| 2026-04-23 16:57 | 45.46307 | -73.75728 | 110 ft | 17 kts | 191° |
| 2026-04-23 16:57 | 45.46191 | -73.75725 | 108 ft | 6 kts | 178° |
| 2026-04-23 16:57 | 45.46142 | -73.75709 | 107 ft | 9 kts | 144° |
| 2026-04-23 16:58 | 45.46136 | -73.75606 | 107 ft | 13 kts | 88° |
| 2026-04-23 16:58 | 45.46137 | -73.75463 | 107 ft | 16 kts | 88° |
| 2026-04-23 16:58 | 45.46126 | -73.75378 | 107 ft | 9 kts | 144° |
| 2026-04-23 16:58 | 45.46064 | -73.75363 | 109 ft | 7 kts | 160° |
| 2026-04-23 16:59 | 45.46026 | -73.75286 | 110 ft | 6 kts | 118° |
| 2026-04-23 16:59 | 45.45999 | -73.75240 | 110 ft | 8 kts | 154° |
| 2026-04-23 16:59 | 45.45952 | -73.75232 | 110 ft | 5 kts | 176° |
| 2026-04-23 16:59 | 45.45937 | -73.75230 | 110 ft | 2 kts | 175° |
| 2026-04-23 17:00 | 45.45927 | -73.75230 | 110 ft | 0 kts | 177° |